Observation data for Sweetwater on 04/24/2019      Previous  Date  Next       Current Mesonet Observations  Soil Data  Daily Summary Page  Observations in Plain Language
KSW1 240500Z 04010KT 14/13 A2999 RMK A01 T01350129  RH  096%=      5-min Rain = 0
KSW1 240501Z 04011KT 14/13 A2999 RMK A01 T01350129  RH  096%=      5-min Rain = 0
KSW1 240502Z 04011KT 14/13 A2999 RMK A01 T01350129  RH  096%=      5-min Rain = 0
KSW1 240503Z 05013KT 14/13 A2999 RMK A01 T01350129  RH  096%=      5-min Rain = 0
KSW1 240504Z 05012KT 14/13 A2999 RMK A01 T01350129  RH  096%=      5-min Rain = 0.01
KSW1 240505Z 05010KT 14/13 A2999 RMK A01 T01350129  RH  096%=      5-min Rain = 0
KSW1 240506Z 05011KT 14/13 A2999 RMK A01 T01350129  RH  096%=      5-min Rain = 0
KSW1 240507Z 04010KT 14/13 A30 RMK A01 T01350129  RH  096%=      5-min Rain = 0
KSW1 240508Z 04008KT 14/13 A30 RMK A01 T01350129  RH  096%=      5-min Rain = 0
KSW1 240509Z 03009KT 14/13 A30 RMK A01 T01350129  RH  096%=      5-min Rain = 0
KSW1 240510Z 03012KT 14/13 A30 RMK A01 T01350129  RH  096%=      5-min Rain = 0
KSW1 240511Z 03012KT 14/13 A30 RMK A01 T01350129  RH  096%=      5-min Rain = 0
KSW1 240512Z 03010KT 14/13 A3001 RMK A01 T01350129  RH  096%=      5-min Rain = 0.01
KSW1 240513Z 03010KT 14/13 A3001 RMK A01 T01350129  RH  096%=      5-min Rain = 0
KSW1 240514Z 03010KT 14/13 A3001 RMK A01 T01350129  RH  096%=      5-min Rain = 0
KSW1 240515Z 03009KT 14/13 A3001 RMK A01 T01350129  RH  096%=      5-min Rain = 0
KSW1 240516Z 03010KT 14/13 A3001 RMK A01 T01350129  RH  097%=      5-min Rain = 0
KSW1 240517Z 04011KT 14/13 A3001 RMK A01 T01350130  RH  097%=      5-min Rain = 0.01
KSW1 240518Z 04011KT 14/13 A3001 RMK A01 T01350129  RH  097%=      5-min Rain = 0
KSW1 240519Z 04009KT 14/13 A3002 RMK A01 T01350130  RH  097%=      5-min Rain = 0
KSW1 240520Z 04010KT 14/13 A3002 RMK A01 T01350130  RH  097%=      5-min Rain = 0.01
KSW1 240521Z 04010KT 14/13 A3002 RMK A01 T01350130  RH  097%=      5-min Rain = 0
KSW1 240522Z 04009KT 14/13 A3002 RMK A01 T01350130  RH  097%=      5-min Rain = 0
KSW1 240523Z 04010KT 14/13 A3001 RMK A01 T01350130  RH  097%=      5-min Rain = 0
KSW1 240524Z 04010KT 14/13 A3001 RMK A01 T01350130  RH  097%=      5-min Rain = 0.01
KSW1 240525Z 04009KT 14/13 A3001 RMK A01 T01350130  RH  097%=      5-min Rain = 0
KSW1 240526Z 04011KT 13/13 A3001 RMK A01 T01340130  RH  097%=      5-min Rain = 0
KSW1 240527Z 04011KT 13/13 A3001 RMK A01 T01340129  RH  097%=      5-min Rain = 0.01
KSW1 240528Z 04012KT 13/13 A3001 RMK A01 T01340129  RH  097%=      5-min Rain = 0
KSW1 240529Z 03011KT 13/13 A30 RMK A01 T01340129  RH  097%=      5-min Rain = 0
KSW1 240530Z 03009KT 13/13 A30 RMK A01 T01340129  RH  097%=      5-min Rain = 0
KSW1 240531Z 03009KT 13/13 A30 RMK A01 T01340130  RH  097%=      5-min Rain = 0
KSW1 240532Z 03010KT 13/13 A30 RMK A01 T01340130  RH  097%=      5-min Rain = 0.01
KSW1 240533Z 04011KT 13/13 A30 RMK A01 T01340129  RH  097%=      5-min Rain = 0
KSW1 240534Z 04010KT 13/13 A30 RMK A01 T01340130  RH  097%=      5-min Rain = 0
KSW1 240535Z 03010KT 13/13 A30 RMK A01 T01340130  RH  097%=      5-min Rain = 0
KSW1 240536Z 04010KT 13/13 A30 RMK A01 T01340130  RH  097%=      5-min Rain = 0.01
KSW1 240537Z 04010KT 13/13 A30 RMK A01 T01340130  RH  097%=      5-min Rain = 0
KSW1 240538Z 04010KT 13/13 A30 RMK A01 T01340130  RH  097%=      5-min Rain = 0
KSW1 240539Z 05010KT 13/13 A30 RMK A01 T01340130  RH  097%=      5-min Rain = 0
KSW1 240540Z 05013KT 13/13 A2999 RMK A01 T01340130  RH  097%=      5-min Rain = 0.01
KSW1 240541Z 05014KT 13/13 A2999 RMK A01 T01340130  RH  097%=      5-min Rain = 0
KSW1 240542Z 05015KT 13/13 A2999 RMK A01 T01340130  RH  097%=      5-min Rain = 0
KSW1 240543Z 05016KT 13/13 A2999 RMK A01 T01340130  RH  097%=      5-min Rain = 0
KSW1 240544Z 05015KT 13/13 A2999 RMK A01 T01330129  RH  097%=      5-min Rain = 0
KSW1 240545Z 05013KT 13/13 A2999 RMK A01 T01330129  RH  097%=      5-min Rain = 0
KSW1 240546Z 05014KT 13/13 A2999 RMK A01 T01330129  RH  097%=      5-min Rain = 0
KSW1 240547Z 05014KT 13/13 A2999 RMK A01 T01330129  RH  097%=      5-min Rain = 0.01
KSW1 240548Z 05013KT 13/13 A2998 RMK A01 T01330129  RH  097%=      5-min Rain = 0
KSW1 240549Z 05014KT 13/13 A2998 RMK A01 T01330129  RH  097%=      5-min Rain = 0
KSW1 240550Z 05013KT 13/13 A2998 RMK A01 T01330128  RH  097%=      5-min Rain = 0
KSW1 240551Z 05014KT 13/13 A2998 RMK A01 T01320128  RH  097%=      5-min Rain = 0
KSW1 240552Z 05013KT 13/13 A2998 RMK A01 T01320128  RH  097%=      5-min Rain = 0
KSW1 240553Z 06014KT 13/13 A2998 RMK A01 T01320128  RH  097%=      5-min Rain = 0
KSW1 240554Z 06012G17KT 13/13 A2998 RMK A01 T01320128  RH  097%=      5-min Rain = 0
KSW1 240555Z 06014KT 13/13 A2998 RMK A01 T01320128  RH  097%=      5-min Rain = 0
KSW1 240556Z 06015KT 13/13 A2998 RMK A01 T01320127  RH  097%=      5-min Rain = 0.01
KSW1 240557Z 06014KT 13/13 A2999 RMK A01 T01320127  RH  097%=      5-min Rain = 0
KSW1 240558Z 05012KT 13/13 A2999 RMK A01 T01320127  RH  097%=      5-min Rain = 0
KSW1 240559Z 06013KT 13/13 A2999 RMK A01 T01320127  RH  097%=      5-min Rain = 0
KSW1 240600Z 05013G18KT 13/13 A2999 RMK A01 T01320127  RH  097%=      5-min Rain = 0
KSW1 240601Z 05014KT 13/13 A2998 RMK A01 T01310127  RH  097%=      5-min Rain = 0
KSW1 240602Z 06014KT 13/13 A2998 RMK A01 T01320127  RH  097%=      5-min Rain = 0
KSW1 240603Z 06014KT 13/13 A2997 RMK A01 T01320127  RH  097%=      5-min Rain = 0
KSW1 240604Z 06013KT 13/13 A2997 RMK A01 T01320128  RH  097%=      5-min Rain = 0
KSW1 240605Z 07016KT 13/13 A2996 RMK A01 T01320127  RH  097%=      5-min Rain = 0
KSW1 240606Z 07016KT 13/13 A2996 RMK A01 T01310127  RH  097%=      5-min Rain = 0
KSW1 240607Z 07018KT 13/13 A2996 RMK A01 T01310127  RH  097%=      5-min Rain = 0
KSW1 240608Z 08017KT 13/13 A2996 RMK A01 T01310127  RH  097%=      5-min Rain = 0
KSW1 240609Z 08015G20KT 13/13 A2996 RMK A01 T01310126  RH  097%=      5-min Rain = 0
KSW1 240610Z 08016KT 13/13 A2996 RMK A01 T01310127  RH  097%=      5-min Rain = 0
KSW1 240611Z 09016KT 13/13 A2996 RMK A01 T01310127  RH  097%=      5-min Rain = 0
KSW1 240612Z 09018KT 13/13 A2996 RMK A01 T01310127  RH  097%=      5-min Rain = 0.01
KSW1 240613Z 09018KT 13/13 A2996 RMK A01 T01310127  RH  097%=      5-min Rain = 0
KSW1 240614Z 09017G22KT 13/13 A2996 RMK A01 T01310127  RH  097%=      5-min Rain = 0
KSW1 240615Z 09017KT 13/13 A2996 RMK A01 T01310127  RH  097%=      5-min Rain = 0
KSW1 240616Z 09016G21KT 13/13 A2997 RMK A01 T01310127  RH  097%=      5-min Rain = 0
KSW1 240617Z 08015KT 13/13 A2997 RMK A01 T01310127  RH  097%=      5-min Rain = 0
KSW1 240618Z 08016KT 13/13 A2997 RMK A01 T01310127  RH  097%=      5-min Rain = 0
KSW1 240619Z 09016KT 13/13 A2997 RMK A01 T01310127  RH  097%=      5-min Rain = 0
KSW1 240620Z 08014KT 13/13 A2998 RMK A01 T01320127  RH  097%=      5-min Rain = 0
KSW1 240621Z 08013KT 13/13 A2998 RMK A01 T01320127  RH  097%=      5-min Rain = 0
KSW1 240622Z 08014KT 13/13 A2998 RMK A01 T01320127  RH  097%=      5-min Rain = 0
KSW1 240623Z 09014KT 13/13 A2998 RMK A01 T01320127  RH  097%=      5-min Rain = 0
KSW1 240624Z 08012KT 13/13 A2998 RMK A01 T01320127  RH  097%=      5-min Rain = 0
KSW1 240625Z 08012KT 13/13 A2998 RMK A01 T01320127  RH  097%=      5-min Rain = 0
KSW1 240626Z 09013KT 13/13 A2998 RMK A01 T01320127  RH  097%=      5-min Rain = 0
KSW1 240627Z 10011KT 13/13 A2998 RMK A01 T01320127  RH  097%=      5-min Rain = 0
KSW1 240628Z 11011KT 13/13 A2998 RMK A01 T01320127  RH  097%=      5-min Rain = 0
KSW1 240629Z 11012KT 13/13 A2999 RMK A01 T01320127  RH  097%=      5-min Rain = 0
KSW1 240630Z 12011KT 13/13 A2999 RMK A01 T01330128  RH  097%=      5-min Rain = 0
KSW1 240631Z 11013KT 13/13 A2999 RMK A01 T01330128  RH  097%=      5-min Rain = 0
KSW1 240632Z 11013KT 13/13 A2999 RMK A01 T01320127  RH  096%=      5-min Rain = 0
KSW1 240633Z 11010KT 13/13 A2999 RMK A01 T01330127  RH  096%=      5-min Rain = 0
KSW1 240634Z 11011KT 13/13 A2998 RMK A01 T01330127  RH  096%=      5-min Rain = 0
KSW1 240635Z 11012KT 13/13 A2998 RMK A01 T01330127  RH  096%=      5-min Rain = 0
KSW1 240636Z 11014KT 13/13 A2998 RMK A01 T01330127  RH  096%=      5-min Rain = 0
KSW1 240637Z 11012KT 13/13 A2998 RMK A01 T01330127  RH  096%=      5-min Rain = 0
KSW1 240638Z 11010KT 13/13 A2999 RMK A01 T01340128  RH  096%=      5-min Rain = 0
KSW1 240639Z 12013KT 13/13 A2999 RMK A01 T01340127  RH  096%=      5-min Rain = 0
KSW1 240640Z 13013KT 13/13 A2999 RMK A01 T01340128  RH  096%=      5-min Rain = 0
KSW1 240641Z 13012KT 13/13 A2999 RMK A01 T01340128  RH  096%=      5-min Rain = 0
KSW1 240642Z 13012KT 13/13 A2999 RMK A01 T01340128  RH  096%=      5-min Rain = 0
KSW1 240643Z 13013KT 13/13 A2998 RMK A01 T01340128  RH  096%=      5-min Rain = 0
KSW1 240644Z 13013KT 13/13 A2998 RMK A01 T01340128  RH  096%=      5-min Rain = 0
KSW1 240645Z 13014KT 13/13 A2998 RMK A01 T01340128  RH  096%=      5-min Rain = 0
KSW1 240646Z 14013KT 13/13 A2998 RMK A01 T01340128  RH  096%=      5-min Rain = 0
KSW1 240647Z 14013KT 13/13 A2998 RMK A01 T01340128  RH  096%=      5-min Rain = 0
KSW1 240648Z 14013KT 13/13 A2998 RMK A01 T01340128  RH  096%=      5-min Rain = 0
KSW1 240649Z 14012KT 13/13 A2998 RMK A01 T01340128  RH  096%=      5-min Rain = 0
KSW1 240650Z 13014KT 13/13 A2998 RMK A01 T01340128  RH  096%=      5-min Rain = 0
KSW1 240651Z 13015KT 13/13 A2998 RMK A01 T01340128  RH  096%=      5-min Rain = 0
KSW1 240652Z 13016KT 13/13 A2997 RMK A01 T01340128  RH  096%=      5-min Rain = 0
KSW1 240653Z 13016KT 13/13 A2997 RMK A01 T01340128  RH  096%=      5-min Rain = 0.01
KSW1 240654Z 13017KT 13/13 A2997 RMK A01 T01340128  RH  096%=      5-min Rain = 0
KSW1 240655Z 13016KT 13/13 A2997 RMK A01 T01340128  RH  096%=      5-min Rain = 0
KSW1 240656Z 12014KT 13/13 A2997 RMK A01 T01340128  RH  096%=      5-min Rain = 0
KSW1 240657Z 12013G18KT 13/13 A2997 RMK A01 T01340128  RH  096%=      5-min Rain = 0
KSW1 240658Z 12011KT 13/13 A2997 RMK A01 T01340127  RH  095%=      5-min Rain = 0
KSW1 240659Z 11010KT 13/13 A2998 RMK A01 T01340127  RH  095%=      5-min Rain = 0
KSW1 240700Z 11009KT 13/13 A2998 RMK A01 T01340127  RH  095%=      5-min Rain = 0
KSW1 240701Z 11009KT 13/13 A2999 RMK A01 T01340127  RH  095%=      5-min Rain = 0
KSW1 240702Z 11009KT 13/13 A2999 RMK A01 T01340127  RH  095%=      5-min Rain = 0
KSW1 240703Z 10008G13KT 13/13 A2999 RMK A01 T01340127  RH  095%=      5-min Rain = 0
KSW1 240704Z 09006KT 14/13 A2999 RMK A01 T01350127  RH  095%=      5-min Rain = 0
KSW1 240705Z 09006KT 14/13 A2999 RMK A01 T01350128  RH  095%=      5-min Rain = 0
KSW1 240706Z 10008KT 14/13 A2999 RMK A01 T01350127  RH  095%=      5-min Rain = 0
KSW1 240707Z 10009KT 14/13 A2999 RMK A01 T01350127  RH  095%=      5-min Rain = 0
KSW1 240708Z 11011KT 14/13 A2998 RMK A01 T01350128  RH  095%=      5-min Rain = 0.01
KSW1 240709Z 10012KT 14/13 A2997 RMK A01 T01350127  RH  095%=      5-min Rain = 0
KSW1 240710Z 10012KT 14/13 A2997 RMK A01 T01350128  RH  095%=      5-min Rain = 0
KSW1 240711Z 09012KT 14/13 A2996 RMK A01 T01350128  RH  095%=      5-min Rain = 0
KSW1 240712Z 08011KT 14/13 A2996 RMK A01 T01350128  RH  095%=      5-min Rain = 0
KSW1 240713Z 09011KT 14/13 A2996 RMK A01 T01350128  RH  095%=      5-min Rain = 0
KSW1 240714Z 08011KT 14/13 A2995 RMK A01 T01350128  RH  096%=      5-min Rain = 0
KSW1 240715Z 09013G18KT 14/13 A2995 RMK A01 T01350128  RH  096%=      5-min Rain = 0
KSW1 240716Z 09016KT 14/13 A2995 RMK A01 T01350128  RH  096%=      5-min Rain = 0
KSW1 240717Z 09014KT 14/13 A2994 RMK A01 T01350128  RH  095%=      5-min Rain = 0
KSW1 240718Z 09016KT 14/13 A2994 RMK A01 T01350127  RH  095%=      5-min Rain = 0
KSW1 240719Z 09015KT 14/13 A2993 RMK A01 T01350127  RH  095%=      5-min Rain = 0
KSW1 240720Z 08017KT 14/13 A2992 RMK A01 T01350127  RH  095%=      5-min Rain = 0
KSW1 240721Z 08017KT 14/13 A2992 RMK A01 T01350127  RH  095%=      5-min Rain = 0
KSW1 240722Z 08016KT 14/13 A2992 RMK A01 T01350127  RH  095%=      5-min Rain = 0
KSW1 240723Z 08015KT 14/13 A2992 RMK A01 T01350127  RH  095%=      5-min Rain = 0
KSW1 240724Z 07016KT 14/13 A2992 RMK A01 T01350127  RH  095%=      5-min Rain = 0
KSW1 240725Z 07015KT 14/13 A2992 RMK A01 T01350127  RH  095%=      5-min Rain = 0
KSW1 240726Z 07016KT 14/13 A2991 RMK A01 T01350128  RH  095%=      5-min Rain = 0
KSW1 240727Z 07016KT 14/13 A2991 RMK A01 T01350128  RH  096%=      5-min Rain = 0
KSW1 240728Z 07017KT 13/13 A2991 RMK A01 T01340128  RH  096%=      5-min Rain = 0
KSW1 240729Z 07017KT 13/13 A2991 RMK A01 T01340128  RH  096%=      5-min Rain = 0
KSW1 240730Z 07016KT 13/13 A2991 RMK A01 T01340128  RH  096%=      5-min Rain = 0
KSW1 240731Z 07016KT 13/13 A2991 RMK A01 T01340128  RH  096%=      5-min Rain = 0
KSW1 240732Z 07014KT 13/13 A2991 RMK A01 T01340128  RH  096%=      5-min Rain = 0
KSW1 240733Z 07013KT 13/13 A2992 RMK A01 T01340128  RH  096%=      5-min Rain = 0
KSW1 240734Z 08013KT 13/13 A2992 RMK A01 T01340128  RH  096%=      5-min Rain = 0
KSW1 240735Z 08014KT 13/13 A2991 RMK A01 T01340128  RH  096%=      5-min Rain = 0.01
KSW1 240736Z 09011KT 13/13 A2991 RMK A01 T01340128  RH  096%=      5-min Rain = 0
KSW1 240737Z 09012KT 13/13 A2991 RMK A01 T01340128  RH  096%=      5-min Rain = 0
KSW1 240738Z 08010KT 13/13 A2992 RMK A01 T01340128  RH  097%=      5-min Rain = 0
KSW1 240739Z 04008KT 13/13 A2993 RMK A01 T01340129  RH  097%=      5-min Rain = 0
KSW1 240740Z 35010KT 13/13 A2994 RMK A01 T01340129  RH  097%=      5-min Rain = 0
KSW1 240741Z 34015KT 13/13 A2994 RMK A01 T01340129  RH  097%=      5-min Rain = 0
KSW1 240742Z 36018KT 13/13 A2994 RMK A01 T01340129  RH  097%=      5-min Rain = 0
KSW1 240743Z 02018KT 13/13 A2993 RMK A01 T01340129  RH  097%=      5-min Rain = 0
KSW1 240744Z 04017KT 13/13 A2992 RMK A01 T01340129  RH  097%=      5-min Rain = 0
KSW1 240745Z 05020KT 13/13 A299 RMK A01 T01340129  RH  097%=      5-min Rain = 0
KSW1 240746Z 06022G27KT 13/13 A2988 RMK A01 T01340128  RH  096%=      5-min Rain = 0
KSW1 240747Z 05022KT 13/13 A2987 RMK A01 T01340128  RH  096%=      5-min Rain = 0
KSW1 240748Z 05020G27KT 13/13 A2987 RMK A01 T01340128  RH  096%=      5-min Rain = 0
KSW1 240749Z 05025KT 13/13 A2986 RMK A01 T01340128  RH  096%=      5-min Rain = 0
KSW1 240750Z 05026KT 13/13 A2986 RMK A01 T01340128  RH  096%=      5-min Rain = 0
KSW1 240751Z 05023KT 13/13 A2986 RMK A01 T01330128  RH  096%=      5-min Rain = 0
KSW1 240752Z 04017G23KT 13/13 A2987 RMK A01 T01330128  RH  096%=      5-min Rain = 0
KSW1 240753Z 03016G21KT 13/13 A2988 RMK A01 T01330128  RH  097%=      5-min Rain = 0
KSW1 240754Z 03013KT 13/13 A299 RMK A01 T01330129  RH  097%=      5-min Rain = 0
KSW1 240755Z 01008KT 13/13 A2991 RMK A01 T01330129  RH  097%=      5-min Rain = 0
KSW1 240756Z 36007KT 13/13 A2993 RMK A01 T01340129  RH  097%=      5-min Rain = 0
KSW1 240757Z 34005KT 13/13 A2994 RMK A01 T01330129  RH  097%=      5-min Rain = 0
KSW1 240758Z 30006KT 13/13 A2995 RMK A01 T01340129  RH  097%=      5-min Rain = 0.01
KSW1 240759Z 30006KT 13/13 A2996 RMK A01 T01330129  RH  097%=      5-min Rain = 0
KSW1 240800Z 29006KT 13/13 A2996 RMK A01 T01340130  RH  097%=      5-min Rain = 0
KSW1 240801Z 30006KT 13/13 A2997 RMK A01 T01340129  RH  097%=      5-min Rain = 0
KSW1 240802Z 31006KT 13/13 A2997 RMK A01 T01340130  RH  097%=      5-min Rain = 0
KSW1 240803Z 34007KT 13/13 A2996 RMK A01 T01340130  RH  097%=      5-min Rain = 0
KSW1 240804Z 34009KT 13/13 A2996 RMK A01 T01340130  RH  097%=      5-min Rain = 0
KSW1 240805Z 35012KT 13/13 A2995 RMK A01 T01340130  RH  097%=      5-min Rain = 0
KSW1 240806Z 35012KT 13/13 A2994 RMK A01 T01340130  RH  097%=      5-min Rain = 0
KSW1 240807Z 01014KT 13/13 A2994 RMK A01 T01340129  RH  097%=      5-min Rain = 0
KSW1 240808Z 01010KT 13/13 A2995 RMK A01 T01330129  RH  097%=      5-min Rain = 0
KSW1 240809Z 00009KT 13/13 A2995 RMK A01 T01330129  RH  097%=      5-min Rain = 0
KSW1 240810Z 01008KT 13/13 A2996 RMK A01 T01330129  RH  097%=      5-min Rain = 0
KSW1 240811Z 01006KT 13/13 A2995 RMK A01 T01340129  RH  097%=      5-min Rain = 0
KSW1 240812Z 02009KT 13/13 A2995 RMK A01 T01340129  RH  097%=      5-min Rain = 0
KSW1 240813Z 02008KT 13/13 A2994 RMK A01 T01330129  RH  097%=      5-min Rain = 0
KSW1 240814Z 02007KT 13/13 A2994 RMK A01 T01340129  RH  097%=      5-min Rain = 0
KSW1 240815Z 02008KT 13/13 A2995 RMK A01 T01330129  RH  097%=      5-min Rain = 0
KSW1 240816Z 02008KT 13/13 A2995 RMK A01 T01340129  RH  097%=      5-min Rain = 0
KSW1 240817Z 02009KT 13/13 A2995 RMK A01 T01330129  RH  097%=      5-min Rain = 0
KSW1 240818Z 02010KT 13/13 A2994 RMK A01 T01340129  RH  097%=      5-min Rain = 0
KSW1 240819Z 02008KT 13/13 A2995 RMK A01 T01340130  RH  097%=      5-min Rain = 0
KSW1 240820Z 01009KT 13/13 A2995 RMK A01 T01330129  RH  097%=      5-min Rain = 0
KSW1 240821Z 02009KT 13/13 A2995 RMK A01 T01340130  RH  097%=      5-min Rain = 0
KSW1 240822Z 01007KT 13/13 A2995 RMK A01 T01330130  RH  097%=      5-min Rain = 0
KSW1 240823Z 01007KT 13/13 A2996 RMK A01 T01340130  RH  097%=      5-min Rain = 0
KSW1 240824Z 02009KT 13/13 A2995 RMK A01 T01340130  RH  097%=      5-min Rain = 0
KSW1 240825Z 02010KT 13/13 A2995 RMK A01 T01340130  RH  097%=      5-min Rain = 0
KSW1 240826Z 03013KT 13/13 A2994 RMK A01 T01330129  RH  097%=      5-min Rain = 0
KSW1 240827Z 03013KT 13/13 A2993 RMK A01 T01340130  RH  098%=      5-min Rain = 0
KSW1 240828Z 04012KT 13/13 A2993 RMK A01 T01330130  RH  098%=      5-min Rain = 0
KSW1 240829Z 04010KT 13/13 A2993 RMK A01 T01340130  RH  098%=      5-min Rain = 0
KSW1 240830Z 04010KT 13/13 A2993 RMK A01 T01330129  RH  098%=      5-min Rain = 0
KSW1 240831Z 03007KT 13/13 A2994 RMK A01 T01330129  RH  098%=      5-min Rain = 0
KSW1 240832Z 02010KT 13/13 A2994 RMK A01 T01330129  RH  098%=      5-min Rain = 0
KSW1 240833Z 01009KT 13/13 A2994 RMK A01 T01330129  RH  098%=      5-min Rain = 0
KSW1 240834Z 02013KT 13/13 A2994 RMK A01 T01330129  RH  098%=      5-min Rain = 0
KSW1 240835Z 02011KT 13/13 A2993 RMK A01 T01330130  RH  098%=      5-min Rain = 0
KSW1 240836Z 03013KT 13/13 A2993 RMK A01 T01330129  RH  098%=      5-min Rain = 0
KSW1 240837Z 02011KT 13/13 A2994 RMK A01 T01330130  RH  098%=      5-min Rain = 0
KSW1 240838Z 02010KT 13/13 A2995 RMK A01 T01330129  RH  098%=      5-min Rain = 0
KSW1 240839Z 02010KT 13/13 A2995 RMK A01 T01330129  RH  098%=      5-min Rain = 0
KSW1 240840Z 02011KT 13/13 A2995 RMK A01 T01330129  RH  098%=      5-min Rain = 0
KSW1 240841Z 03010KT 13/13 A2995 RMK A01 T01330129  RH  098%=      5-min Rain = 0
KSW1 240842Z 03009KT 13/13 A2995 RMK A01 T01330129  RH  098%=      5-min Rain = 0
KSW1 240843Z 03006KT 13/13 A2995 RMK A01 T01330130  RH  098%=      5-min Rain = 0
KSW1 240844Z 03010KT 13/13 A2995 RMK A01 T01330130  RH  098%=      5-min Rain = 0
KSW1 240845Z 04009KT 13/13 A2995 RMK A01 T01330129  RH  098%=      5-min Rain = 0
KSW1 240846Z 05009KT 13/13 A2995 RMK A01 T01330129  RH  098%=      5-min Rain = 0
KSW1 240847Z 04010KT 13/13 A2995 RMK A01 T01330129  RH  098%=      5-min Rain = 0
KSW1 240848Z 03012KT 13/13 A2996 RMK A01 T01330129  RH  098%=      5-min Rain = 0
KSW1 240849Z 04012KT 13/13 A2996 RMK A01 T01330130  RH  098%=      5-min Rain = 0
KSW1 240850Z 04011KT 13/13 A2996 RMK A01 T01330129  RH  098%=      5-min Rain = 0
KSW1 240851Z 04011KT 13/13 A2996 RMK A01 T01330129  RH  098%=      5-min Rain = 0
KSW1 240852Z 05009KT 13/13 A2996 RMK A01 T01330129  RH  098%=      5-min Rain = 0
KSW1 240853Z 04010KT 13/13 A2996 RMK A01 T01330129  RH  098%=      5-min Rain = 0
KSW1 240854Z 04010KT 13/13 A2996 RMK A01 T01330129  RH  098%=      5-min Rain = 0
KSW1 240855Z 04011KT 13/13 A2996 RMK A01 T01330129  RH  098%=      5-min Rain = 0
KSW1 240856Z 04010KT 13/13 A2996 RMK A01 T01330129  RH  098%=      5-min Rain = 0
KSW1 240857Z 04011KT 13/13 A2996 RMK A01 T01330129  RH  098%=      5-min Rain = 0
KSW1 240858Z 04010KT 13/13 A2995 RMK A01 T01330129  RH  098%=      5-min Rain = 0
KSW1 240859Z 04010KT 13/13 A2995 RMK A01 T01330129  RH  098%=      5-min Rain = 0
KSW1 240900Z 04008KT 13/13 A2996 RMK A01 T01330129  RH  098%=      5-min Rain = 0
KSW1 240901Z 04010KT 13/13 A2996 RMK A01 T01330129  RH  098%=      5-min Rain = 0
KSW1 240902Z 04011KT 13/13 A2996 RMK A01 T01330129  RH  098%=      5-min Rain = 0
KSW1 240903Z 04011KT 13/13 A2996 RMK A01 T01330129  RH  098%=      5-min Rain = 0
KSW1 240904Z 04010KT 13/13 A2996 RMK A01 T01330129  RH  098%=      5-min Rain = 0
KSW1 240905Z 04011KT 13/13 A2996 RMK A01 T01330129  RH  098%=      5-min Rain = 0
KSW1 240906Z 04010KT 13/13 A2996 RMK A01 T01330129  RH  098%=      5-min Rain = 0
KSW1 240907Z 04007KT 13/13 A2997 RMK A01 T01330129  RH  098%=      5-min Rain = 0
KSW1 240908Z 03008KT 13/13 A2997 RMK A01 T01330129  RH  098%=      5-min Rain = 0
KSW1 240909Z 03008KT 13/13 A2997 RMK A01 T01330129  RH  098%=      5-min Rain = 0
KSW1 240910Z 02006KT 13/13 A2997 RMK A01 T01330129  RH  098%=      5-min Rain = 0
KSW1 240911Z 03009KT 13/13 A2997 RMK A01 T01330129  RH  098%=      5-min Rain = 0
KSW1 240912Z 03009KT 13/13 A2997 RMK A01 T01330129  RH  098%=      5-min Rain = 0
KSW1 240913Z 03010KT 13/13 A2997 RMK A01 T01330129  RH  098%=      5-min Rain = 0
KSW1 240914Z 03008KT 13/13 A2997 RMK A01 T01330129  RH  098%=      5-min Rain = 0
KSW1 240915Z 03008KT 13/13 A2998 RMK A01 T01330129  RH  098%=      5-min Rain = 0
KSW1 240916Z 03008KT 13/13 A2998 RMK A01 T01330129  RH  098%=      5-min Rain = 0
KSW1 240917Z 04008KT 13/13 A2998 RMK A01 T01330129  RH  098%=      5-min Rain = 0
KSW1 240918Z 03006KT 13/13 A2998 RMK A01 T01330129  RH  098%=      5-min Rain = 0
KSW1 240919Z 04004KT 13/13 A2998 RMK A01 T01330129  RH  098%=      5-min Rain = 0
KSW1 240920Z 05005KT 13/13 A2998 RMK A01 T01330129  RH  098%=      5-min Rain = 0
KSW1 240921Z 05007KT 13/13 A2998 RMK A01 T01330129  RH  098%=      5-min Rain = 0
KSW1 240922Z 06008KT 13/13 A2997 RMK A01 T01330129  RH  098%=      5-min Rain = 0
KSW1 240923Z 04010KT 13/13 A2997 RMK A01 T01330129  RH  098%=      5-min Rain = 0
KSW1 240924Z 05009KT 13/13 A2997 RMK A01 T01330129  RH  098%=      5-min Rain = 0
KSW1 240925Z 04009KT 13/13 A2997 RMK A01 T01330129  RH  098%=      5-min Rain = 0
KSW1 240926Z 04008KT 13/13 A2997 RMK A01 T01330129  RH  098%=      5-min Rain = 0
KSW1 240927Z 04008KT 13/13 A2997 RMK A01 T01330129  RH  098%=      5-min Rain = 0
KSW1 240928Z 05009KT 13/13 A2997 RMK A01 T01330129  RH  098%=      5-min Rain = 0
KSW1 240929Z 06009KT 13/13 A2996 RMK A01 T01330129  RH  098%=      5-min Rain = 0
KSW1 240930Z 06010KT 13/13 A2996 RMK A01 T01330129  RH  098%=      5-min Rain = 0
KSW1 240931Z 06010KT 13/13 A2996 RMK A01 T01330129  RH  098%=      5-min Rain = 0
KSW1 240932Z 06007KT 13/13 A2997 RMK A01 T01320129  RH  098%=      5-min Rain = 0
KSW1 240933Z 07007KT 13/13 A2997 RMK A01 T01330129  RH  098%=      5-min Rain = 0
KSW1 240934Z 06009KT 13/13 A2997 RMK A01 T01320129  RH  098%=      5-min Rain = 0
KSW1 240935Z 06009KT 13/13 A2996 RMK A01 T01320129  RH  098%=      5-min Rain = 0
KSW1 240936Z 05010KT 13/13 A2996 RMK A01 T01320129  RH  098%=      5-min Rain = 0
KSW1 240937Z 05008KT 13/13 A2996 RMK A01 T01330129  RH  098%=      5-min Rain = 0
KSW1 240938Z 04009KT 13/13 A2996 RMK A01 T01330129  RH  098%=      5-min Rain = 0
KSW1 240939Z 04009KT 13/13 A2996 RMK A01 T01330129  RH  098%=      5-min Rain = 0
KSW1 240940Z 05008KT 13/13 A2996 RMK A01 T01330129  RH  098%=      5-min Rain = 0
KSW1 240941Z 05010KT 13/13 A2996 RMK A01 T01320129  RH  098%=      5-min Rain = 0
KSW1 240942Z 07009KT 13/13 A2996 RMK A01 T01320129  RH  098%=      5-min Rain = 0
KSW1 240943Z 07010KT 13/13 A2996 RMK A01 T01320129  RH  098%=      5-min Rain = 0
KSW1 240944Z 08009KT 13/13 A2995 RMK A01 T01320129  RH  098%=      5-min Rain = 0
KSW1 240945Z 08009KT 13/13 A2995 RMK A01 T01320129  RH  098%=      5-min Rain = 0
KSW1 240946Z 08010KT 13/13 A2995 RMK A01 T01320129  RH  098%=      5-min Rain = 0
KSW1 240947Z 07011KT 13/13 A2994 RMK A01 T01320129  RH  098%=      5-min Rain = 0
KSW1 240948Z 06012KT 13/13 A2994 RMK A01 T01320129  RH  098%=      5-min Rain = 0
KSW1 240949Z 06013KT 13/13 A2994 RMK A01 T01320129  RH  098%=      5-min Rain = 0
KSW1 240950Z 05013KT 13/13 A2993 RMK A01 T01320129  RH  098%=      5-min Rain = 0
KSW1 240951Z 06013KT 13/13 A2993 RMK A01 T01320129  RH  098%=      5-min Rain = 0
KSW1 240952Z 06014KT 13/13 A2993 RMK A01 T01310128  RH  098%=      5-min Rain = 0
KSW1 240953Z 06013KT 13/13 A2993 RMK A01 T01320129  RH  098%=      5-min Rain = 0
KSW1 240954Z 06012KT 13/13 A2993 RMK A01 T01310128  RH  098%=      5-min Rain = 0
KSW1 240955Z 06012KT 13/13 A2993 RMK A01 T01310128  RH  098%=      5-min Rain = 0
KSW1 240956Z 06011KT 13/13 A2994 RMK A01 T01310128  RH  098%=      5-min Rain = 0
KSW1 240957Z 05011KT 13/13 A2994 RMK A01 T01310128  RH  098%=      5-min Rain = 0
KSW1 240958Z 04009KT 13/13 A2994 RMK A01 T01300128  RH  098%=      5-min Rain = 0
KSW1 240959Z 04008KT 13/13 A2994 RMK A01 T01310128  RH  098%=      5-min Rain = 0
KSW1 241000Z 03008KT 13/13 A2994 RMK A01 T01310128  RH  098%=      5-min Rain = 0
KSW1 241001Z 04011KT 13/13 A2994 RMK A01 T01310128  RH  098%=      5-min Rain = 0
KSW1 241002Z 03009KT 13/13 A2994 RMK A01 T01310128  RH  098%=      5-min Rain = 0
KSW1 241003Z 03009KT 13/13 A2994 RMK A01 T01310128  RH  098%=      5-min Rain = 0
KSW1 241004Z 04007KT 13/13 A2993 RMK A01 T01310128  RH  098%=      5-min Rain = 0
KSW1 241005Z 03008KT 13/13 A2993 RMK A01 T01310128  RH  098%=      5-min Rain = 0
KSW1 241006Z 05009KT 13/13 A2994 RMK A01 T01310128  RH  098%=      5-min Rain = 0
KSW1 241007Z 03008KT 13/13 A2994 RMK A01 T01310128  RH  098%=      5-min Rain = 0
KSW1 241008Z 03009KT 13/13 A2994 RMK A01 T01310128  RH  098%=      5-min Rain = 0
KSW1 241009Z 01007KT 13/13 A2995 RMK A01 T01310128  RH  098%=      5-min Rain = 0
KSW1 241010Z 00008KT 13/13 A2995 RMK A01 T01310128  RH  098%=      5-min Rain = 0
KSW1 241011Z 02009KT 13/13 A2995 RMK A01 T01310128  RH  098%=      5-min Rain = 0
KSW1 241012Z 01008KT 13/13 A2995 RMK A01 T01310128  RH  098%=      5-min Rain = 0
KSW1 241013Z 02009KT 13/13 A2995 RMK A01 T01310128  RH  098%=      5-min Rain = 0
KSW1 241014Z 01007KT 13/13 A2995 RMK A01 T01310128  RH  098%=      5-min Rain = 0
KSW1 241015Z 01005KT 13/13 A2995 RMK A01 T01310128  RH  098%=      5-min Rain = 0
KSW1 241016Z 01007KT 13/13 A2995 RMK A01 T01310128  RH  098%=      5-min Rain = 0
KSW1 241017Z 02007KT 13/13 A2995 RMK A01 T01310128  RH  098%=      5-min Rain = 0
KSW1 241018Z 02007KT 13/13 A2995 RMK A01 T01310128  RH  098%=      5-min Rain = 0
KSW1 241019Z 02008KT 13/13 A2995 RMK A01 T01310128  RH  098%=      5-min Rain = 0
KSW1 241020Z 02009KT 13/13 A2995 RMK A01 T01310128  RH  098%=      5-min Rain = 0
KSW1 241021Z 02009KT 13/13 A2995 RMK A01 T01310128  RH  098%=      5-min Rain = 0
KSW1 241022Z 02008KT 13/13 A2995 RMK A01 T01310128  RH  098%=      5-min Rain = 0
KSW1 241023Z 03010KT 13/13 A2995 RMK A01 T01310128  RH  098%=      5-min Rain = 0
KSW1 241024Z 03009KT 13/13 A2995 RMK A01 T01310128  RH  098%=      5-min Rain = 0
KSW1 241025Z 04007KT 13/13 A2995 RMK A01 T01310128  RH  098%=      5-min Rain = 0
KSW1 241026Z 04009KT 13/13 A2995 RMK A01 T01310128  RH  098%=      5-min Rain = 0
KSW1 241027Z 05009KT 13/13 A2995 RMK A01 T01310128  RH  098%=      5-min Rain = 0
KSW1 241028Z 05008KT 13/13 A2995 RMK A01 T01310128  RH  098%=      5-min Rain = 0
KSW1 241029Z 04010KT 13/13 A2994 RMK A01 T01310128  RH  098%=      5-min Rain = 0
KSW1 241030Z 04009KT 13/13 A2994 RMK A01 T01310128  RH  098%=      5-min Rain = 0
KSW1 241031Z 04008KT 13/13 A2994 RMK A01 T01310128  RH  098%=      5-min Rain = 0
KSW1 241032Z 04009KT 13/13 A2995 RMK A01 T01310128  RH  098%=      5-min Rain = 0
KSW1 241033Z 04008KT 13/13 A2995 RMK A01 T01310128  RH  098%=      5-min Rain = 0
KSW1 241034Z 03007KT 13/13 A2995 RMK A01 T01310128  RH  098%=      5-min Rain = 0
KSW1 241035Z 05007KT 13/13 A2996 RMK A01 T01310128  RH  098%=      5-min Rain = 0
KSW1 241036Z 04006KT 13/13 A2996 RMK A01 T01310128  RH  098%=      5-min Rain = 0
KSW1 241037Z 04006KT 13/13 A2996 RMK A01 T01310128  RH  098%=      5-min Rain = 0
KSW1 241038Z 04008KT 13/13 A2996 RMK A01 T01310128  RH  098%=      5-min Rain = 0
KSW1 241039Z 04010KT 13/13 A2996 RMK A01 T01310128  RH  098%=      5-min Rain = 0
KSW1 241040Z 04010KT 13/13 A2996 RMK A01 T01300128  RH  098%=      5-min Rain = 0
KSW1 241041Z 04007KT 13/13 A2996 RMK A01 T01300127  RH  098%=      5-min Rain = 0
KSW1 241042Z 03009KT 13/13 A2995 RMK A01 T01300127  RH  098%=      5-min Rain = 0
KSW1 241043Z 03008KT 13/13 A2995 RMK A01 T01300127  RH  098%=      5-min Rain = 0
KSW1 241044Z 04010KT 13/13 A2995 RMK A01 T01300127  RH  098%=      5-min Rain = 0
KSW1 241045Z 03008KT 13/13 A2995 RMK A01 T01300127  RH  098%=      5-min Rain = 0
KSW1 241046Z 03010KT 13/13 A2995 RMK A01 T01300127  RH  098%=      5-min Rain = 0.01
KSW1 241047Z 03010KT 13/13 A2995 RMK A01 T01300127  RH  098%=      5-min Rain = 0
KSW1 241048Z 04008KT 13/13 A2995 RMK A01 T01300127  RH  098%=      5-min Rain = 0
KSW1 241049Z 04008KT 13/13 A2995 RMK A01 T01300127  RH  098%=      5-min Rain = 0
KSW1 241050Z 03011KT 13/13 A2995 RMK A01 T01300127  RH  098%=      5-min Rain = 0
KSW1 241051Z 03009KT 13/13 A2995 RMK A01 T01300127  RH  098%=      5-min Rain = 0
KSW1 241052Z 03009KT 13/13 A2995 RMK A01 T01290127  RH  098%=      5-min Rain = 0
KSW1 241053Z 03009KT 13/13 A2995 RMK A01 T01290127  RH  098%=      5-min Rain = 0
KSW1 241054Z 03010KT 13/13 A2995 RMK A01 T01290127  RH  098%=      5-min Rain = 0
KSW1 241055Z 03010KT 13/13 A2995 RMK A01 T01290126  RH  098%=      5-min Rain = 0
KSW1 241056Z 03010KT 13/13 A2995 RMK A01 T01290126  RH  098%=      5-min Rain = 0
KSW1 241057Z 03010KT 13/13 A2995 RMK A01 T01290126  RH  098%=      5-min Rain = 0
KSW1 241058Z 03010KT 13/13 A2995 RMK A01 T01290126  RH  098%=      5-min Rain = 0
KSW1 241059Z 03010KT 13/13 A2995 RMK A01 T01290126  RH  098%=      5-min Rain = 0
KSW1 241100Z 03011KT 13/13 A2995 RMK A01 T01290126  RH  098%=      5-min Rain = 0
KSW1 241101Z 03010KT 13/13 A2995 RMK A01 T01290126  RH  098%=      5-min Rain = 0
KSW1 241102Z 03009KT 13/13 A2996 RMK A01 T01290126  RH  098%=      5-min Rain = 0
KSW1 241103Z 04008KT 13/13 A2996 RMK A01 T01290126  RH  098%=      5-min Rain = 0
KSW1 241104Z 03008KT 13/13 A2996 RMK A01 T01290126  RH  098%=      5-min Rain = 0
KSW1 241105Z 04011KT 13/13 A2996 RMK A01 T01290126  RH  098%=      5-min Rain = 0
KSW1 241106Z 04011KT 13/13 A2996 RMK A01 T01290126  RH  098%=      5-min Rain = 0
KSW1 241107Z 04009KT 13/13 A2996 RMK A01 T01280125  RH  098%=      5-min Rain = 0
KSW1 241108Z 04010KT 13/13 A2996 RMK A01 T01290126  RH  098%=      5-min Rain = 0
KSW1 241109Z 04008KT 13/13 A2996 RMK A01 T01280125  RH  098%=      5-min Rain = 0
KSW1 241110Z 04009KT 13/13 A2995 RMK A01 T01280126  RH  098%=      5-min Rain = 0
KSW1 241111Z 03010KT 13/13 A2995 RMK A01 T01280126  RH  098%=      5-min Rain = 0
KSW1 241112Z 03009KT 13/13 A2995 RMK A01 T01280125  RH  098%=      5-min Rain = 0
KSW1 241113Z 03010KT 13/13 A2995 RMK A01 T01290126  RH  098%=      5-min Rain = 0
KSW1 241114Z 03009KT 13/13 A2995 RMK A01 T01280126  RH  098%=      5-min Rain = 0
KSW1 241115Z 04009KT 13/13 A2995 RMK A01 T01280126  RH  098%=      5-min Rain = 0
KSW1 241116Z 04009KT 13/13 A2996 RMK A01 T01290126  RH  098%=      5-min Rain = 0
KSW1 241117Z 03009KT 13/13 A2996 RMK A01 T01280126  RH  098%=      5-min Rain = 0
KSW1 241118Z 04009KT 13/13 A2996 RMK A01 T01290126  RH  098%=      5-min Rain = 0
KSW1 241119Z 04009KT 13/13 A2996 RMK A01 T01290126  RH  098%=      5-min Rain = 0
KSW1 241120Z 04008KT 13/13 A2996 RMK A01 T01280125  RH  098%=      5-min Rain = 0
KSW1 241121Z 04008KT 13/13 A2996 RMK A01 T01280126  RH  098%=      5-min Rain = 0
KSW1 241122Z 04007KT 13/13 A2996 RMK A01 T01290126  RH  098%=      5-min Rain = 0
KSW1 241123Z 04007KT 13/13 A2996 RMK A01 T01290126  RH  098%=      5-min Rain = 0
KSW1 241124Z 05007KT 13/13 A2995 RMK A01 T01280126  RH  098%=      5-min Rain = 0
KSW1 241125Z 04008KT 13/13 A2995 RMK A01 T01280125  RH  098%=      5-min Rain = 0
KSW1 241126Z 04008KT 13/13 A2995 RMK A01 T01290126  RH  098%=      5-min Rain = 0
KSW1 241127Z 04010KT 13/13 A2995 RMK A01 T01290126  RH  098%=      5-min Rain = 0
KSW1 241128Z 04010KT 13/13 A2995 RMK A01 T01290126  RH  098%=      5-min Rain = 0
KSW1 241129Z 04009KT 13/13 A2995 RMK A01 T01290126  RH  098%=      5-min Rain = 0
KSW1 241130Z 04009KT 13/13 A2994 RMK A01 T01290126  RH  098%=      5-min Rain = 0
KSW1 241131Z 04008KT 13/13 A2994 RMK A01 T01290126  RH  098%=      5-min Rain = 0
KSW1 241132Z 04008KT 13/13 A2994 RMK A01 T01290126  RH  098%=      5-min Rain = 0
KSW1 241133Z 04007KT 13/13 A2994 RMK A01 T01290126  RH  098%=      5-min Rain = 0
KSW1 241134Z 04008KT 13/13 A2994 RMK A01 T01290126  RH  098%=      5-min Rain = 0
KSW1 241135Z 04009KT 13/13 A2994 RMK A01 T01290126  RH  098%=      5-min Rain = 0
KSW1 241136Z 04008KT 13/13 A2994 RMK A01 T01290126  RH  098%=      5-min Rain = 0
KSW1 241137Z 03008KT 13/13 A2994 RMK A01 T01290126  RH  098%=      5-min Rain = 0
KSW1 241138Z 03008KT 13/13 A2994 RMK A01 T01290126  RH  098%=      5-min Rain = 0
KSW1 241139Z 03011KT 13/13 A2995 RMK A01 T01290126  RH  098%=      5-min Rain = 0
KSW1 241140Z 04010KT 13/13 A2995 RMK A01 T01290126  RH  098%=      5-min Rain = 0
KSW1 241141Z 04009KT 13/13 A2995 RMK A01 T01280125  RH  098%=      5-min Rain = 0
KSW1 241142Z 03008KT 13/13 A2995 RMK A01 T01280126  RH  098%=      5-min Rain = 0
KSW1 241143Z 03007KT 13/13 A2995 RMK A01 T01280126  RH  098%=      5-min Rain = 0
KSW1 241144Z 03010KT 13/13 A2995 RMK A01 T01280125  RH  098%=      5-min Rain = 0
KSW1 241145Z 03011KT 13/13 A2996 RMK A01 T01280126  RH  098%=      5-min Rain = 0
KSW1 241146Z 03010KT 13/13 A2996 RMK A01 T01290126  RH  098%=      5-min Rain = 0.01
KSW1 241147Z 03009KT 13/13 A2996 RMK A01 T01290126  RH  098%=      5-min Rain = 0
KSW1 241148Z 03008KT 13/13 A2996 RMK A01 T01280125  RH  098%=      5-min Rain = 0
KSW1 241149Z 04010KT 13/13 A2995 RMK A01 T01280126  RH  098%=      5-min Rain = 0
KSW1 241150Z 03010KT 13/13 A2995 RMK A01 T01290126  RH  098%=      5-min Rain = 0
KSW1 241151Z 03008KT 13/13 A2995 RMK A01 T01280125  RH  098%=      5-min Rain = 0
KSW1 241152Z 02010KT 13/13 A2995 RMK A01 T01280125  RH  098%=      5-min Rain = 0
KSW1 241153Z 03010KT 13/13 A2995 RMK A01 T01280125  RH  098%=      5-min Rain = 0
KSW1 241154Z 02011KT 13/13 A2995 RMK A01 T01280125  RH  098%=      5-min Rain = 0
KSW1 241155Z 02011KT 13/13 A2995 RMK A01 T01280125  RH  098%=      5-min Rain = 0
KSW1 241156Z 02010KT 13/13 A2994 RMK A01 T01280125  RH  098%=      5-min Rain = 0
KSW1 241157Z 03011KT 13/13 A2994 RMK A01 T01280125  RH  098%=      5-min Rain = 0
KSW1 241158Z 03011KT 13/13 A2994 RMK A01 T01280125  RH  098%=      5-min Rain = 0
KSW1 241159Z 03010KT 13/13 A2994 RMK A01 T01280125  RH  098%=      5-min Rain = 0
KSW1 241200Z 03009KT 13/13 A2994 RMK A01 T01280125  RH  098%=      5-min Rain = 0
KSW1 241201Z 03008KT 13/13 A2994 RMK A01 T01280125  RH  098%=      5-min Rain = 0
KSW1 241202Z 03008KT 13/13 A2993 RMK A01 T01280125  RH  098%=      5-min Rain = 0
KSW1 241203Z 04010KT 13/13 A2993 RMK A01 T01280125  RH  098%=      5-min Rain = 0
KSW1 241204Z 03009KT 13/13 A2993 RMK A01 T01280125  RH  098%=      5-min Rain = 0
KSW1 241205Z 04010KT 13/13 A2993 RMK A01 T01280125  RH  098%=      5-min Rain = 0
KSW1 241206Z 04009KT 13/13 A2993 RMK A01 T01280125  RH  098%=      5-min Rain = 0
KSW1 241207Z 05008KT 13/13 A2993 RMK A01 T01280125  RH  098%=      5-min Rain = 0
KSW1 241208Z 05010KT 13/13 A2993 RMK A01 T01280125  RH  098%=      5-min Rain = 0
KSW1 241209Z 04011KT 13/13 A2993 RMK A01 T01280125  RH  098%=      5-min Rain = 0
KSW1 241210Z 04009KT 13/13 A2993 RMK A01 T01280125  RH  098%=      5-min Rain = 0
KSW1 241211Z 04009KT 13/13 A2994 RMK A01 T01280125  RH  098%=      5-min Rain = 0
KSW1 241212Z 04009KT 13/13 A2994 RMK A01 T01280125  RH  098%=      5-min Rain = 0
KSW1 241213Z 03008KT 13/13 A2994 RMK A01 T01280125  RH  098%=      5-min Rain = 0
KSW1 241214Z 04007KT 13/13 A2994 RMK A01 T01280125  RH  098%=      5-min Rain = 0
KSW1 241215Z 04009KT 13/13 A2994 RMK A01 T01280125  RH  098%=      5-min Rain = 0
KSW1 241216Z 03007KT 13/13 A2994 RMK A01 T01280125  RH  098%=      5-min Rain = 0
KSW1 241217Z 03009KT 13/13 A2995 RMK A01 T01280125  RH  098%=      5-min Rain = 0
KSW1 241218Z 04007KT 13/13 A2995 RMK A01 T01280125  RH  098%=      5-min Rain = 0
KSW1 241219Z 03005KT 13/13 A2995 RMK A01 T01280125  RH  098%=      5-min Rain = 0
KSW1 241220Z 03006KT 13/13 A2995 RMK A01 T01280125  RH  098%=      5-min Rain = 0
KSW1 241221Z 04007KT 13/13 A2995 RMK A01 T01280125  RH  098%=      5-min Rain = 0
KSW1 241222Z 04008KT 13/13 A2995 RMK A01 T01280125  RH  098%=      5-min Rain = 0
KSW1 241223Z 04006KT 13/13 A2995 RMK A01 T01280125  RH  098%=      5-min Rain = 0
KSW1 241224Z 04007KT 13/13 A2995 RMK A01 T01280125  RH  098%=      5-min Rain = 0
KSW1 241225Z 04006KT 13/13 A2995 RMK A01 T01280125  RH  098%=      5-min Rain = 0
KSW1 241226Z 05009KT 13/13 A2995 RMK A01 T01280126  RH  098%=      5-min Rain = 0
KSW1 241227Z 05009KT 13/13 A2995 RMK A01 T01290126  RH  098%=      5-min Rain = 0
KSW1 241228Z 04009KT 13/13 A2995 RMK A01 T01280125  RH  098%=      5-min Rain = 0
KSW1 241229Z 04009KT 13/13 A2994 RMK A01 T01280125  RH  098%=      5-min Rain = 0
KSW1 241230Z 04008KT 13/13 A2994 RMK A01 T01280125  RH  098%=      5-min Rain = 0
KSW1 241231Z 04009KT 13/13 A2994 RMK A01 T01280125  RH  098%=      5-min Rain = 0
KSW1 241232Z 04008KT 13/13 A2995 RMK A01 T01280126  RH  098%=      5-min Rain = 0
KSW1 241233Z 03007KT 13/13 A2995 RMK A01 T01280125  RH  098%=      5-min Rain = 0
KSW1 241234Z 03008KT 13/13 A2995 RMK A01 T01280125  RH  098%=      5-min Rain = 0
KSW1 241235Z 03009KT 13/13 A2995 RMK A01 T01280125  RH  098%=      5-min Rain = 0
KSW1 241236Z 05009KT 13/13 A2995 RMK A01 T01280125  RH  098%=      5-min Rain = 0
KSW1 241237Z 04008KT 13/13 A2995 RMK A01 T01280125  RH  098%=      5-min Rain = 0
KSW1 241238Z 06009KT 13/13 A2995 RMK A01 T01280125  RH  098%=      5-min Rain = 0
KSW1 241239Z 05008KT 13/13 A2995 RMK A01 T01280125  RH  098%=      5-min Rain = 0
KSW1 241240Z 06008KT 13/13 A2995 RMK A01 T01280125  RH  098%=      5-min Rain = 0
KSW1 241241Z 05010KT 13/13 A2995 RMK A01 T01280126  RH  098%=      5-min Rain = 0
KSW1 241242Z 04009KT 13/13 A2995 RMK A01 T01280125  RH  098%=      5-min Rain = 0
KSW1 241243Z 05008KT 13/13 A2995 RMK A01 T01280125  RH  098%=      5-min Rain = 0
KSW1 241244Z 04008KT 13/13 A2995 RMK A01 T01280125  RH  098%=      5-min Rain = 0
KSW1 241245Z 04007KT 13/13 A2995 RMK A01 T01290126  RH  098%=      5-min Rain = 0
KSW1 241246Z 05007KT 13/13 A2994 RMK A01 T01280126  RH  098%=      5-min Rain = 0
KSW1 241247Z 04006KT 13/13 A2994 RMK A01 T01280126  RH  098%=      5-min Rain = 0
KSW1 241248Z 03007KT 13/13 A2994 RMK A01 T01280126  RH  098%=      5-min Rain = 0
KSW1 241249Z 04008KT 13/13 A2994 RMK A01 T01280126  RH  098%=      5-min Rain = 0
KSW1 241250Z 04008KT 13/13 A2994 RMK A01 T01290126  RH  098%=      5-min Rain = 0
KSW1 241251Z 04007KT 13/13 A2994 RMK A01 T01280126  RH  098%=      5-min Rain = 0
KSW1 241252Z 04007KT 13/13 A2994 RMK A01 T01290126  RH  098%=      5-min Rain = 0
KSW1 241253Z 04008KT 13/13 A2994 RMK A01 T01290126  RH  098%=      5-min Rain = 0
KSW1 241254Z 04009KT 13/13 A2994 RMK A01 T01280126  RH  098%=      5-min Rain = 0
KSW1 241255Z 04009KT 13/13 A2994 RMK A01 T01280126  RH  098%=      5-min Rain = 0
KSW1 241256Z 04007KT 13/13 A2994 RMK A01 T01290126  RH  098%=      5-min Rain = 0
KSW1 241257Z 04008KT 13/13 A2994 RMK A01 T01280126  RH  098%=      5-min Rain = 0
KSW1 241258Z 04007KT 13/13 A2994 RMK A01 T01280126  RH  098%=      5-min Rain = 0
KSW1 241259Z 05007KT 13/13 A2994 RMK A01 T01280126  RH  098%=      5-min Rain = 0
KSW1 241300Z 06007KT 13/13 A2994 RMK A01 T01280126  RH  098%=      5-min Rain = 0
KSW1 241301Z 06008KT 13/13 A2994 RMK A01 T01290127  RH  098%=      5-min Rain = 0
KSW1 241302Z 05009KT 13/13 A2994 RMK A01 T01290127  RH  099%=      5-min Rain = 0
KSW1 241303Z 05010KT 13/13 A2994 RMK A01 T01290127  RH  099%=      5-min Rain = 0
KSW1 241304Z 05009KT 13/13 A2994 RMK A01 T01280126  RH  098%=      5-min Rain = 0
KSW1 241305Z 05010KT 13/13 A2994 RMK A01 T01280126  RH  098%=      5-min Rain = 0
KSW1 241306Z 04010KT 13/13 A2994 RMK A01 T01280126  RH  098%=      5-min Rain = 0
KSW1 241307Z 04010KT 13/13 A2994 RMK A01 T01280126  RH  099%=      5-min Rain = 0
KSW1 241308Z 05010KT 13/13 A2994 RMK A01 T01290126  RH  099%=      5-min Rain = 0
KSW1 241309Z 05009KT 13/13 A2994 RMK A01 T01290126  RH  099%=      5-min Rain = 0
KSW1 241310Z 05009KT 13/13 A2994 RMK A01 T01280126  RH  099%=      5-min Rain = 0
KSW1 241311Z 04007KT 13/13 A2995 RMK A01 T01280126  RH  099%=      5-min Rain = 0
KSW1 241312Z 05007KT 13/13 A2995 RMK A01 T01290127  RH  099%=      5-min Rain = 0
KSW1 241313Z 03006KT 13/13 A2995 RMK A01 T01280126  RH  099%=      5-min Rain = 0
KSW1 241314Z 03005KT 13/13 A2995 RMK A01 T01290127  RH  099%=      5-min Rain = 0
KSW1 241315Z 04005KT 13/13 A2996 RMK A01 T01290127  RH  099%=      5-min Rain = 0
KSW1 241316Z 05007KT 13/13 A2996 RMK A01 T01290127  RH  099%=      5-min Rain = 0
KSW1 241317Z 04006KT 13/13 A2996 RMK A01 T01290127  RH  099%=      5-min Rain = 0
KSW1 241318Z 03007KT 13/13 A2996 RMK A01 T01290127  RH  099%=      5-min Rain = 0
KSW1 241319Z 04006KT 13/13 A2996 RMK A01 T01290127  RH  099%=      5-min Rain = 0
KSW1 241320Z 04007KT 13/13 A2996 RMK A01 T01290127  RH  099%=      5-min Rain = 0
KSW1 241321Z 04007KT 13/13 A2996 RMK A01 T01290127  RH  099%=      5-min Rain = 0
KSW1 241322Z 04008KT 13/13 A2996 RMK A01 T01280126  RH  099%=      5-min Rain = 0
KSW1 241323Z 03007KT 13/13 A2996 RMK A01 T01280126  RH  099%=      5-min Rain = 0
KSW1 241324Z 04007KT 13/13 A2996 RMK A01 T01280126  RH  099%=      5-min Rain = 0
KSW1 241325Z 03007KT 13/13 A2996 RMK A01 T01290127  RH  099%=      5-min Rain = 0
KSW1 241326Z 03008KT 13/13 A2996 RMK A01 T01280126  RH  099%=      5-min Rain = 0
KSW1 241327Z 03009KT 13/13 A2996 RMK A01 T01290127  RH  099%=      5-min Rain = 0
KSW1 241328Z 03008KT 13/13 A2996 RMK A01 T01280126  RH  099%=      5-min Rain = 0
KSW1 241329Z 03007KT 13/13 A2995 RMK A01 T01290127  RH  099%=      5-min Rain = 0
KSW1 241330Z 03007KT 13/13 A2995 RMK A01 T01290127  RH  099%=      5-min Rain = 0
KSW1 241331Z 03008KT 13/13 A2995 RMK A01 T01280126  RH  099%=      5-min Rain = 0
KSW1 241332Z 03007KT 13/13 A2995 RMK A01 T01290127  RH  099%=      5-min Rain = 0
KSW1 241333Z 02007KT 13/13 A2995 RMK A01 T01290127  RH  099%=      5-min Rain = 0
KSW1 241334Z 02006KT 13/13 A2995 RMK A01 T01290127  RH  099%=      5-min Rain = 0
KSW1 241335Z 02009KT 13/13 A2995 RMK A01 T01290127  RH  099%=      5-min Rain = 0
KSW1 241336Z 01008KT 13/13 A2995 RMK A01 T01280126  RH  099%=      5-min Rain = 0
KSW1 241337Z 01008KT 13/13 A2995 RMK A01 T01280126  RH  099%=      5-min Rain = 0
KSW1 241338Z 01009KT 13/13 A2995 RMK A01 T01280126  RH  099%=      5-min Rain = 0
KSW1 241339Z 01010KT 13/13 A2994 RMK A01 T01280126  RH  099%=      5-min Rain = 0
KSW1 241340Z 01011KT 13/13 A2994 RMK A01 T01280126  RH  099%=      5-min Rain = 0
KSW1 241341Z 01012KT 13/13 A2994 RMK A01 T01280126  RH  099%=      5-min Rain = 0
KSW1 241342Z 01011KT 13/13 A2994 RMK A01 T01280126  RH  099%=      5-min Rain = 0
KSW1 241343Z 01010KT 13/13 A2993 RMK A01 T01280126  RH  099%=      5-min Rain = 0
KSW1 241344Z 01009KT 13/13 A2993 RMK A01 T01280126  RH  099%=      5-min Rain = 0
KSW1 241345Z 01009KT 13/13 A2993 RMK A01 T01270125  RH  099%=      5-min Rain = 0
KSW1 241346Z 02007KT 13/13 A2993 RMK A01 T01270125  RH  099%=      5-min Rain = 0
KSW1 241347Z 02010KT 13/13 A2993 RMK A01 T01280126  RH  099%=      5-min Rain = 0
KSW1 241348Z 02010KT 13/13 A2993 RMK A01 T01280126  RH  099%=      5-min Rain = 0
KSW1 241349Z 02010KT 13/13 A2993 RMK A01 T01280126  RH  099%=      5-min Rain = 0
KSW1 241350Z 02010KT 13/13 A2993 RMK A01 T01280126  RH  099%=      5-min Rain = 0
KSW1 241351Z 02010KT 13/13 A2993 RMK A01 T01280126  RH  099%=      5-min Rain = 0
KSW1 241352Z 02011KT 13/13 A2992 RMK A01 T01280126  RH  099%=      5-min Rain = 0
KSW1 241353Z 02011KT 13/13 A2992 RMK A01 T01280126  RH  099%=      5-min Rain = 0
KSW1 241354Z 01010KT 13/13 A2992 RMK A01 T01280126  RH  099%=      5-min Rain = 0
KSW1 241355Z 01010KT 13/13 A2992 RMK A01 T01280126  RH  099%=      5-min Rain = 0
KSW1 241356Z 01010G15KT 13/13 A2992 RMK A01 T01270125  RH  099%=      5-min Rain = 0
KSW1 241357Z 02011KT 13/13 A2992 RMK A01 T01280126  RH  099%=      5-min Rain = 0
KSW1 241358Z 01010KT 13/13 A2992 RMK A01 T01270126  RH  099%=      5-min Rain = 0
KSW1 241359Z 02012KT 13/13 A2992 RMK A01 T01270125  RH  099%=      5-min Rain = 0
KSW1 241400Z 01012KT 13/13 A2991 RMK A01 T01280126  RH  099%=      5-min Rain = 0
KSW1 241401Z 02010KT 13/13 A2991 RMK A01 T01270125  RH  099%=      5-min Rain = 0
KSW1 241402Z 01013KT 13/13 A2991 RMK A01 T01270125  RH  099%=      5-min Rain = 0
KSW1 241403Z 01013KT 13/13 A2991 RMK A01 T01270125  RH  099%=      5-min Rain = 0
KSW1 241404Z 01012KT 13/13 A2991 RMK A01 T01270125  RH  099%=      5-min Rain = 0
KSW1 241405Z 01012KT 13/13 A2991 RMK A01 T01270125  RH  099%=      5-min Rain = 0
KSW1 241406Z 01010KT 13/13 A2991 RMK A01 T01270125  RH  099%=      5-min Rain = 0
KSW1 241407Z 01013KT 13/13 A2991 RMK A01 T01270125  RH  099%=      5-min Rain = 0
KSW1 241408Z 01014KT 13/13 A2991 RMK A01 T01270125  RH  099%=      5-min Rain = 0
KSW1 241409Z 01013KT 13/13 A2991 RMK A01 T01270125  RH  099%=      5-min Rain = 0
KSW1 241410Z 01013KT 13/13 A2991 RMK A01 T01270125  RH  099%=      5-min Rain = 0
KSW1 241411Z 01012KT 13/13 A2991 RMK A01 T01270125  RH  099%=      5-min Rain = 0
KSW1 241412Z 01012KT 13/13 A2991 RMK A01 T01270125  RH  099%=      5-min Rain = 0
KSW1 241413Z 02011KT 13/13 A2992 RMK A01 T01270125  RH  099%=      5-min Rain = 0
KSW1 241414Z 01010KT 13/13 A2992 RMK A01 T01260125  RH  099%=      5-min Rain = 0
KSW1 241415Z 01009G14KT 13/13 A2992 RMK A01 T01270125  RH  099%=      5-min Rain = 0
KSW1 241416Z 01011KT 13/13 A2993 RMK A01 T01270125  RH  099%=      5-min Rain = 0
KSW1 241417Z 01010KT 13/13 A2993 RMK A01 T01270125  RH  099%=      5-min Rain = 0
KSW1 241418Z 01010KT 13/13 A2993 RMK A01 T01270125  RH  099%=      5-min Rain = 0
KSW1 241419Z 00009KT 13/13 A2993 RMK A01 T01270125  RH  099%=      5-min Rain = 0
KSW1 241420Z 01008KT 13/13 A2993 RMK A01 T01270125  RH  099%=      5-min Rain = 0
KSW1 241421Z 00008KT 13/13 A2993 RMK A01 T01270125  RH  099%=      5-min Rain = 0
KSW1 241422Z 00008KT 13/13 A2993 RMK A01 T01270125  RH  099%=      5-min Rain = 0
KSW1 241423Z 00009KT 13/13 A2993 RMK A01 T01270125  RH  099%=      5-min Rain = 0
KSW1 241424Z 01007KT 13/13 A2993 RMK A01 T01270125  RH  099%=      5-min Rain = 0
KSW1 241425Z 01009KT 13/13 A2993 RMK A01 T01270125  RH  099%=      5-min Rain = 0
KSW1 241426Z 02009KT 13/12 A2994 RMK A01 T01260124  RH  099%=      5-min Rain = 0
KSW1 241427Z 02009KT 13/12 A2994 RMK A01 T01260124  RH  099%=      5-min Rain = 0
KSW1 241428Z 02008KT 13/12 A2994 RMK A01 T01260124  RH  099%=      5-min Rain = 0
KSW1 241429Z 02009KT 13/12 A2994 RMK A01 T01260124  RH  099%=      5-min Rain = 0
KSW1 241430Z 02009KT 13/12 A2994 RMK A01 T01260124  RH  099%=      5-min Rain = 0
KSW1 241431Z 02009KT 13/12 A2995 RMK A01 T01250123  RH  099%=      5-min Rain = 0
KSW1 241432Z 01006KT 13/12 A2995 RMK A01 T01250123  RH  099%=      5-min Rain = 0
KSW1 241433Z 02008KT 13/12 A2995 RMK A01 T01250124  RH  099%=      5-min Rain = 0
KSW1 241434Z 02006KT 13/12 A2995 RMK A01 T01250124  RH  099%=      5-min Rain = 0
KSW1 241435Z 03009KT 13/12 A2995 RMK A01 T01260124  RH  099%=      5-min Rain = 0
KSW1 241436Z 03009KT 13/12 A2995 RMK A01 T01260124  RH  099%=      5-min Rain = 0
KSW1 241437Z 03008KT 13/12 A2995 RMK A01 T01260124  RH  099%=      5-min Rain = 0
KSW1 241438Z 03008KT 13/12 A2995 RMK A01 T01260124  RH  099%=      5-min Rain = 0
KSW1 241439Z 03006KT 13/13 A2995 RMK A01 T01260125  RH  099%=      5-min Rain = 0
KSW1 241440Z 03007KT 13/12 A2996 RMK A01 T01260124  RH  099%=      5-min Rain = 0
KSW1 241441Z 03007KT 13/13 A2996 RMK A01 T01260125  RH  099%=      5-min Rain = 0
KSW1 241442Z 02007KT 13/12 A2996 RMK A01 T01260124  RH  099%=      5-min Rain = 0
KSW1 241443Z 02006KT 13/13 A2996 RMK A01 T01260125  RH  099%=      5-min Rain = 0
KSW1 241444Z 03006KT 13/13 A2995 RMK A01 T01270125  RH  099%=      5-min Rain = 0
KSW1 241445Z 02007KT 13/13 A2995 RMK A01 T01270125  RH  099%=      5-min Rain = 0
KSW1 241446Z 02009KT 13/13 A2995 RMK A01 T01270125  RH  099%=      5-min Rain = 0
KSW1 241447Z 02008KT 13/13 A2995 RMK A01 T01270125  RH  099%=      5-min Rain = 0
KSW1 241448Z 02008KT 13/13 A2994 RMK A01 T01270125  RH  099%=      5-min Rain = 0
KSW1 241449Z 03010KT 13/13 A2994 RMK A01 T01260125  RH  099%=      5-min Rain = 0
KSW1 241450Z 02009KT 13/13 A2994 RMK A01 T01270125  RH  099%=      5-min Rain = 0
KSW1 241451Z 00009KT 13/13 A2994 RMK A01 T01270125  RH  099%=      5-min Rain = 0
KSW1 241452Z 00011KT 13/13 A2993 RMK A01 T01270125  RH  099%=      5-min Rain = 0
KSW1 241453Z 01011KT 13/13 A2994 RMK A01 T01270125  RH  099%=      5-min Rain = 0
KSW1 241454Z 01010KT 13/13 A2994 RMK A01 T01260125  RH  099%=      5-min Rain = 0
KSW1 241455Z 00010KT 13/12 A2994 RMK A01 T01260124  RH  099%=      5-min Rain = 0
KSW1 241456Z 35010KT 13/12 A2994 RMK A01 T01260124  RH  099%=      5-min Rain = 0
KSW1 241457Z 36009KT 13/12 A2994 RMK A01 T01260124  RH  099%=      5-min Rain = 0
KSW1 241458Z 35009KT 13/12 A2994 RMK A01 T01260124  RH  099%=      5-min Rain = 0
KSW1 241459Z 35010KT 13/12 A2994 RMK A01 T01260124  RH  099%=      5-min Rain = 0
KSW1 241500Z 36010KT 13/13 A2994 RMK A01 T01260125  RH  099%=      5-min Rain = 0
KSW1 241501Z 00009KT 13/12 A2994 RMK A01 T01260124  RH  099%=      5-min Rain = 0
KSW1 241502Z 00010KT 13/12 A2994 RMK A01 T01260124  RH  099%=      5-min Rain = 0
KSW1 241503Z 00009KT 13/12 A2994 RMK A01 T01260124  RH  099%=      5-min Rain = 0
KSW1 241504Z 36011KT 13/12 A2994 RMK A01 T01260124  RH  099%=      5-min Rain = 0
KSW1 241505Z 01010KT 13/12 A2994 RMK A01 T01260124  RH  099%=      5-min Rain = 0
KSW1 241506Z 01010KT 13/12 A2994 RMK A01 T01260124  RH  099%=      5-min Rain = 0
KSW1 241507Z 01010KT 13/12 A2995 RMK A01 T01260124  RH  099%=      5-min Rain = 0
KSW1 241508Z 00011KT 13/12 A2995 RMK A01 T01260124  RH  099%=      5-min Rain = 0
KSW1 241509Z 36011KT 13/12 A2995 RMK A01 T01260124  RH  099%=      5-min Rain = 0
KSW1 241510Z 36010KT 13/12 A2995 RMK A01 T01250123  RH  099%=      5-min Rain = 0
KSW1 241511Z 00009KT 13/12 A2996 RMK A01 T01250124  RH  099%=      5-min Rain = 0
KSW1 241512Z 36009KT 13/12 A2996 RMK A01 T01250123  RH  099%=      5-min Rain = 0
KSW1 241513Z 36009KT 13/12 A2996 RMK A01 T01250123  RH  099%=      5-min Rain = 0
KSW1 241514Z 35007KT 13/12 A2997 RMK A01 T01250123  RH  099%=      5-min Rain = 0
KSW1 241515Z 34005KT 12/12 A2997 RMK A01 T01240123  RH  099%=      5-min Rain = 0
KSW1 241516Z 35005KT 13/12 A2997 RMK A01 T01250123  RH  099%=      5-min Rain = 0
KSW1 241517Z 35007KT 13/12 A2997 RMK A01 T01250123  RH  099%=      5-min Rain = 0
KSW1 241518Z 34007KT 13/12 A2997 RMK A01 T01250123  RH  099%=      5-min Rain = 0
KSW1 241519Z 34009KT 13/12 A2996 RMK A01 T01250123  RH  099%=      5-min Rain = 0
KSW1 241520Z 34011KT 13/12 A2996 RMK A01 T01250123  RH  099%=      5-min Rain = 0
KSW1 241521Z 34011KT 12/12 A2996 RMK A01 T01240123  RH  099%=      5-min Rain = 0
KSW1 241522Z 34010KT 12/12 A2996 RMK A01 T01240123  RH  099%=      5-min Rain = 0
KSW1 241523Z 34009KT 12/12 A2996 RMK A01 T01240123  RH  099%=      5-min Rain = 0
KSW1 241524Z 34009KT 12/12 A2996 RMK A01 T01240123  RH  099%=      5-min Rain = 0
KSW1 241525Z 34008KT 12/12 A2996 RMK A01 T01240123  RH  099%=      5-min Rain = 0
KSW1 241526Z 33009KT 13/12 A2997 RMK A01 T01250123  RH  099%=      5-min Rain = 0
KSW1 241527Z 33008KT 13/12 A2997 RMK A01 T01250123  RH  099%=      5-min Rain = 0
KSW1 241528Z 32007KT 12/12 A2997 RMK A01 T01240123  RH  099%=      5-min Rain = 0
KSW1 241529Z 32006KT 12/12 A2998 RMK A01 T01240122  RH  099%=      5-min Rain = 0
KSW1 241530Z 32006KT 12/12 A2998 RMK A01 T01230122  RH  099%=      5-min Rain = 0
KSW1 241531Z 32004KT 12/12 A2998 RMK A01 T01230122  RH  099%=      5-min Rain = 0
KSW1 241532Z 32005KT 12/12 A2998 RMK A01 T01240122  RH  099%=      5-min Rain = 0
KSW1 241533Z 34005KT 12/12 A2998 RMK A01 T01230122  RH  099%=      5-min Rain = 0
KSW1 241534Z 35007KT 12/12 A2998 RMK A01 T01230121  RH  099%=      5-min Rain = 0
KSW1 241535Z 35007KT 12/12 A2998 RMK A01 T01230121  RH  099%=      5-min Rain = 0
KSW1 241536Z 36007KT 12/12 A2998 RMK A01 T01230121  RH  099%=      5-min Rain = 0
KSW1 241537Z 36007KT 12/12 A2997 RMK A01 T01230121  RH  099%=      5-min Rain = 0
KSW1 241538Z 36007KT 12/12 A2997 RMK A01 T01230121  RH  099%=      5-min Rain = 0
KSW1 241539Z 00008KT 12/12 A2997 RMK A01 T01230121  RH  099%=      5-min Rain = 0
KSW1 241540Z 36007KT 12/12 A2997 RMK A01 T01230121  RH  099%=      5-min Rain = 0
KSW1 241541Z 36006KT 12/12 A2997 RMK A01 T01230121  RH  099%=      5-min Rain = 0
KSW1 241542Z 00005KT 12/12 A2997 RMK A01 T01230121  RH  099%=      5-min Rain = 0
KSW1 241543Z 00006KT 12/12 A2997 RMK A01 T01230121  RH  099%=      5-min Rain = 0
KSW1 241544Z 00007KT 12/12 A2998 RMK A01 T01230121  RH  099%=      5-min Rain = 0
KSW1 241545Z 01007KT 12/12 A2998 RMK A01 T01230121  RH  099%=      5-min Rain = 0
KSW1 241546Z 01007KT 12/12 A2998 RMK A01 T01230121  RH  099%=      5-min Rain = 0
KSW1 241547Z 01007KT 12/12 A2998 RMK A01 T01230121  RH  099%=      5-min Rain = 0
KSW1 241548Z 01007KT 12/12 A2997 RMK A01 T01230121  RH  099%=      5-min Rain = 0
KSW1 241549Z 02006KT 12/12 A2997 RMK A01 T01230121  RH  099%=      5-min Rain = 0
KSW1 241550Z 03007KT 12/12 A2997 RMK A01 T01230121  RH  099%=      5-min Rain = 0
KSW1 241551Z 03007KT 12/12 A2997 RMK A01 T01230121  RH  099%=      5-min Rain = 0
KSW1 241552Z 04007KT 12/12 A2997 RMK A01 T01230122  RH  099%=      5-min Rain = 0
KSW1 241553Z 03008KT 12/12 A2997 RMK A01 T01240122  RH  099%=      5-min Rain = 0
KSW1 241554Z 03009KT 12/12 A2997 RMK A01 T01240122  RH  099%=      5-min Rain = 0
KSW1 241555Z 03008KT 12/12 A2997 RMK A01 T01230122  RH  099%=      5-min Rain = 0
KSW1 241556Z 03007KT 12/12 A2997 RMK A01 T01230121  RH  099%=      5-min Rain = 0
KSW1 241557Z 02007KT 12/12 A2996 RMK A01 T01230121  RH  099%=      5-min Rain = 0
KSW1 241558Z 02008KT 12/12 A2996 RMK A01 T01230121  RH  099%=      5-min Rain = 0
KSW1 241559Z 03007KT 12/12 A2996 RMK A01 T01230121  RH  099%=      5-min Rain = 0
KSW1 241600Z 02007KT 12/12 A2996 RMK A01 T01240122  RH  099%=      5-min Rain = 0
KSW1 241601Z 02007KT 12/12 A2996 RMK A01 T01240122  RH  099%=      5-min Rain = 0
KSW1 241602Z 02008KT 12/12 A2996 RMK A01 T01240122  RH  099%=      5-min Rain = 0
KSW1 241603Z 02007KT 12/12 A2996 RMK A01 T01240122  RH  099%=      5-min Rain = 0
KSW1 241604Z 02006KT 12/12 A2996 RMK A01 T01240122  RH  099%=      5-min Rain = 0
KSW1 241605Z 02006KT 12/12 A2995 RMK A01 T01240123  RH  099%=      5-min Rain = 0
KSW1 241606Z 02009KT 12/12 A2995 RMK A01 T01240123  RH  099%=      5-min Rain = 0
KSW1 241607Z 01008KT 12/12 A2996 RMK A01 T01240123  RH  099%=      5-min Rain = 0
KSW1 241608Z 01008KT 12/12 A2996 RMK A01 T01240123  RH  099%=      5-min Rain = 0
KSW1 241609Z 02008KT 12/12 A2996 RMK A01 T01240123  RH  099%=      5-min Rain = 0
KSW1 241610Z 01010KT 12/12 A2996 RMK A01 T01240123  RH  099%=      5-min Rain = 0
KSW1 241611Z 00008KT 12/12 A2996 RMK A01 T01240122  RH  099%=      5-min Rain = 0
KSW1 241612Z 00008KT 12/12 A2996 RMK A01 T01240122  RH  099%=      5-min Rain = 0
KSW1 241613Z 00009KT 12/12 A2997 RMK A01 T01240122  RH  099%=      5-min Rain = 0
KSW1 241614Z 00009KT 12/12 A2997 RMK A01 T01230122  RH  099%=      5-min Rain = 0
KSW1 241615Z 01007KT 12/12 A2997 RMK A01 T01230122  RH  099%=      5-min Rain = 0
KSW1 241616Z 01005KT 12/12 A2998 RMK A01 T01230122  RH  099%=      5-min Rain = 0
KSW1 241617Z 00005KT 12/12 A2998 RMK A01 T01240122  RH  099%=      5-min Rain = 0
KSW1 241618Z 36005KT 12/12 A2999 RMK A01 T01230122  RH  099%=      5-min Rain = 0
KSW1 241619Z 35003KT 12/12 A2999 RMK A01 T01230122  RH  099%=      5-min Rain = 0
KSW1 241620Z 36001KT 12/12 A30 RMK A01 T01230122  RH  099%=      5-min Rain = 0
KSW1 241621Z 04000KT 12/12 A30 RMK A01 T01230122  RH  099%=      5-min Rain = 0
KSW1 241622Z 21001KT 12/12 A3001 RMK A01 T01240122  RH  099%=      5-min Rain = 0
KSW1 241623Z 22000KT 12/12 A3001 RMK A01 T01240123  RH  099%=      5-min Rain = 0
KSW1 241624Z 18000KT 12/12 A3001 RMK A01 T01240123  RH  099%=      5-min Rain = 0
KSW1 241625Z 08000KT 12/12 A3001 RMK A01 T01240123  RH  099%=      5-min Rain = 0.01
KSW1 241626Z 07001KT 12/12 A3001 RMK A01 T01240122  RH  099%=      5-min Rain = 0
KSW1 241627Z 09001KT 12/12 A3001 RMK A01 T01230122  RH  099%=      5-min Rain = 0
KSW1 241628Z 07002KT 12/12 A3001 RMK A01 T01230122  RH  099%=      5-min Rain = 0.01
KSW1 241629Z 07002KT 12/12 A3001 RMK A01 T01240122  RH  099%=      5-min Rain = 0
KSW1 241630Z 06003KT 12/12 A3001 RMK A01 T01230122  RH  099%=      5-min Rain = 0
KSW1 241631Z 04004KT 12/12 A3001 RMK A01 T01230122  RH  099%=      5-min Rain = 0.01
KSW1 241632Z 04003KT 12/12 A3001 RMK A01 T01230122  RH  099%=      5-min Rain = 0.01
KSW1 241633Z 03003KT 12/12 A3001 RMK A01 T01230122  RH  099%=      5-min Rain = 0
KSW1 241634Z 03002KT 12/12 A30 RMK A01 T01240122  RH  099%=      5-min Rain = 0
KSW1 241635Z 03003KT 12/12 A30 RMK A01 T01240122  RH  099%=      5-min Rain = 0.01
KSW1 241636Z 02003KT 12/12 A30 RMK A01 T01240123  RH  099%=      5-min Rain = 0
KSW1 241637Z 01003KT 12/12 A30 RMK A01 T01240122  RH  099%=      5-min Rain = 0
KSW1 241638Z 01002KT 12/12 A30 RMK A01 T01240123  RH  099%=      5-min Rain = 0.01
KSW1 241639Z 03001KT 12/12 A30 RMK A01 T01240122  RH  099%=      5-min Rain = 0
KSW1 241640Z 02002KT 12/12 A30 RMK A01 T01240122  RH  099%=      5-min Rain = 0
KSW1 241641Z 02001KT 12/12 A30 RMK A01 T01240122  RH  099%=      5-min Rain = 0.01
KSW1 241642Z 02001KT 12/12 A30 RMK A01 T01240122  RH  099%=      5-min Rain = 0
KSW1 241643Z 01002KT 13/12 A30 RMK A01 T01250123  RH  099%=      5-min Rain = 0
KSW1 241644Z 00002KT 13/12 A30 RMK A01 T01250123  RH  099%=      5-min Rain = 0
KSW1 241645Z 36002KT 13/12 A30 RMK A01 T01250123  RH  099%=      5-min Rain = 0
KSW1 241646Z 36002KT 13/12 A30 RMK A01 T01260124  RH  099%=      5-min Rain = 0.01
KSW1 241647Z 35003KT 13/12 A30 RMK A01 T01250123  RH  099%=      5-min Rain = 0
KSW1 241648Z 35003KT 12/12 A30 RMK A01 T01240123  RH  099%=      5-min Rain = 0
KSW1 241649Z 34003KT 13/12 A30 RMK A01 T01250123  RH  099%=      5-min Rain = 0
KSW1 241650Z 33004KT 13/12 A30 RMK A01 T01250124  RH  099%=      5-min Rain = 0
KSW1 241651Z 32005KT 13/12 A30 RMK A01 T01250124  RH  099%=      5-min Rain = 0
KSW1 241652Z 33006KT 13/12 A30 RMK A01 T01250124  RH  099%=      5-min Rain = 0
KSW1 241653Z 33006KT 13/12 A30 RMK A01 T01250124  RH  099%=      5-min Rain = 0
KSW1 241654Z 33006KT 13/12 A30 RMK A01 T01250123  RH  099%=      5-min Rain = 0
KSW1 241655Z 33005KT 13/12 A30 RMK A01 T01250123  RH  099%=      5-min Rain = 0
KSW1 241656Z 32004KT 13/12 A30 RMK A01 T01250123  RH  099%=      5-min Rain = 0
KSW1 241657Z 31004KT 13/12 A30 RMK A01 T01260124  RH  099%=      5-min Rain = 0
KSW1 241658Z 32005KT 13/12 A30 RMK A01 T01260124  RH  099%=      5-min Rain = 0
KSW1 241659Z 32005KT 13/12 A30 RMK A01 T01260124  RH  099%=      5-min Rain = 0
KSW1 241700Z 31005KT 13/12 A30 RMK A01 T01250124  RH  099%=      5-min Rain = 0
KSW1 241701Z 31003KT 13/12 A30 RMK A01 T01250124  RH  099%=      5-min Rain = 0
KSW1 241702Z 32003KT 13/12 A30 RMK A01 T01250123  RH  099%=      5-min Rain = 0
KSW1 241703Z 34002KT 13/12 A30 RMK A01 T01250123  RH  099%=      5-min Rain = 0
KSW1 241704Z 34002KT 13/12 A30 RMK A01 T01250123  RH  099%=      5-min Rain = 0
KSW1 241705Z 33001KT 13/12 A30 RMK A01 T01250123  RH  099%=      5-min Rain = 0
KSW1 241706Z 32001KT 12/12 A30 RMK A01 T01240122  RH  099%=      5-min Rain = 0
KSW1 241707Z 32002KT 13/12 A3001 RMK A01 T01250123  RH  099%=      5-min Rain = 0
KSW1 241708Z 31002KT 13/12 A3001 RMK A01 T01250123  RH  099%=      5-min Rain = 0.01
KSW1 241709Z 32003KT 13/12 A3001 RMK A01 T01250123  RH  099%=      5-min Rain = 0
KSW1 241710Z 31003KT 13/12 A3001 RMK A01 T01260124  RH  099%=      5-min Rain = 0
KSW1 241711Z 31004KT 13/12 A3001 RMK A01 T01260124  RH  099%=      5-min Rain = 0
KSW1 241712Z 30003KT 13/12 A3001 RMK A01 T01260124  RH  099%=      5-min Rain = 0
KSW1 241713Z 31003KT 13/13 A3001 RMK A01 T01260125  RH  099%=      5-min Rain = 0
KSW1 241714Z 32004KT 13/12 A3001 RMK A01 T01260124  RH  099%=      5-min Rain = 0
KSW1 241715Z 32004KT 13/12 A3001 RMK A01 T01260124  RH  099%=      5-min Rain = 0
KSW1 241716Z 32004KT 13/12 A3001 RMK A01 T01260124  RH  099%=      5-min Rain = 0
KSW1 241717Z 33004KT 13/12 A3001 RMK A01 T01260124  RH  099%=      5-min Rain = 0
KSW1 241718Z 33003KT 13/12 A3001 RMK A01 T01260124  RH  099%=      5-min Rain = 0
KSW1 241719Z 32003KT 13/12 A3001 RMK A01 T01250123  RH  099%=      5-min Rain = 0
KSW1 241720Z 32003KT 13/12 A3001 RMK A01 T01250123  RH  099%=      5-min Rain = 0
KSW1 241721Z 32003KT 13/12 A3001 RMK A01 T01260124  RH  099%=      5-min Rain = 0
KSW1 241722Z 31002KT 13/12 A3001 RMK A01 T01260124  RH  099%=      5-min Rain = 0
KSW1 241723Z 30002KT 13/12 A3001 RMK A01 T01260124  RH  099%=      5-min Rain = 0
KSW1 241724Z 29002KT 13/12 A3001 RMK A01 T01260124  RH  099%=      5-min Rain = 0
KSW1 241725Z 30003KT 13/12 A3001 RMK A01 T01260124  RH  099%=      5-min Rain = 0
KSW1 241726Z 30002KT 13/12 A3001 RMK A01 T01260124  RH  099%=      5-min Rain = 0
KSW1 241727Z 28002KT 13/12 A3001 RMK A01 T01260124  RH  099%=      5-min Rain = 0
KSW1 241728Z 28003KT 13/13 A3001 RMK A01 T01270125  RH  099%=      5-min Rain = 0
KSW1 241729Z 30003KT 13/13 A3001 RMK A01 T01270125  RH  099%=      5-min Rain = 0
KSW1 241730Z 30003KT 13/13 A3001 RMK A01 T01270125  RH  099%=      5-min Rain = 0
KSW1 241731Z 30003KT 13/13 A3001 RMK A01 T01270125  RH  099%=      5-min Rain = 0
KSW1 241732Z 27003KT 13/13 A3001 RMK A01 T01270125  RH  099%=      5-min Rain = 0
KSW1 241733Z 28004KT 13/13 A3001 RMK A01 T01270125  RH  099%=      5-min Rain = 0
KSW1 241734Z 29004KT 13/13 A3001 RMK A01 T01270125  RH  099%=      5-min Rain = 0
KSW1 241735Z 28003KT 13/13 A3001 RMK A01 T01270125  RH  099%=      5-min Rain = 0
KSW1 241736Z 28003KT 13/13 A3001 RMK A01 T01270126  RH  099%=      5-min Rain = 0
KSW1 241737Z 26004KT 13/13 A30 RMK A01 T01280126  RH  099%=      5-min Rain = 0
KSW1 241738Z 26003KT 13/13 A30 RMK A01 T01280126  RH  099%=      5-min Rain = 0
KSW1 241739Z 29003KT 13/13 A30 RMK A01 T01280126  RH  099%=      5-min Rain = 0
KSW1 241740Z 28003KT 13/13 A30 RMK A01 T01290127  RH  099%=      5-min Rain = 0
KSW1 241741Z 27004KT 13/13 A30 RMK A01 T01290127  RH  099%=      5-min Rain = 0
KSW1 241742Z 28004KT 13/13 A30 RMK A01 T01290126  RH  099%=      5-min Rain = 0
KSW1 241743Z 28004KT 13/13 A30 RMK A01 T01290127  RH  099%=      5-min Rain = 0
KSW1 241744Z 28005KT 13/13 A30 RMK A01 T01290127  RH  099%=      5-min Rain = 0
KSW1 241745Z 28004KT 13/13 A30 RMK A01 T01290126  RH  098%=      5-min Rain = 0
KSW1 241746Z 29005KT 13/13 A30 RMK A01 T01290126  RH  099%=      5-min Rain = 0
KSW1 241747Z 29006KT 13/13 A30 RMK A01 T01290127  RH  099%=      5-min Rain = 0
KSW1 241748Z 29006KT 13/13 A30 RMK A01 T01280126  RH  098%=      5-min Rain = 0
KSW1 241749Z 29005KT 13/13 A30 RMK A01 T01280125  RH  098%=      5-min Rain = 0
KSW1 241750Z 29006KT 13/12 A30 RMK A01 T01270124  RH  098%=      5-min Rain = 0
KSW1 241751Z 29005KT 13/12 A30 RMK A01 T01270124  RH  098%=      5-min Rain = 0
KSW1 241752Z 29005KT 13/12 A30 RMK A01 T01270124  RH  098%=      5-min Rain = 0
KSW1 241753Z 28004KT 13/13 A30 RMK A01 T01280125  RH  098%=      5-min Rain = 0
KSW1 241754Z 29005KT 13/13 A30 RMK A01 T01280126  RH  098%=      5-min Rain = 0
KSW1 241755Z 29006KT 13/13 A30 RMK A01 T01290126  RH  098%=      5-min Rain = 0
KSW1 241756Z 29006KT 13/13 A30 RMK A01 T01280126  RH  098%=      5-min Rain = 0
KSW1 241757Z 29005KT 13/13 A2999 RMK A01 T01280125  RH  098%=      5-min Rain = 0
KSW1 241758Z 28004KT 13/13 A2999 RMK A01 T01280125  RH  098%=      5-min Rain = 0
KSW1 241759Z 27005KT 13/13 A2999 RMK A01 T01290126  RH  098%=      5-min Rain = 0
KSW1 241800Z 28005KT 13/13 A2999 RMK A01 T01290126  RH  098%=      5-min Rain = 0
KSW1 241801Z 29006KT 13/13 A2999 RMK A01 T01290126  RH  098%=      5-min Rain = 0
KSW1 241802Z 29006KT 13/13 A2999 RMK A01 T01290125  RH  098%=      5-min Rain = 0
KSW1 241803Z 30006KT 13/13 A2999 RMK A01 T01280125  RH  098%=      5-min Rain = 0
KSW1 241804Z 30005KT 13/13 A2999 RMK A01 T01280125  RH  098%=      5-min Rain = 0
KSW1 241805Z 30005KT 13/13 A2999 RMK A01 T01280125  RH  098%=      5-min Rain = 0
KSW1 241806Z 30006KT 13/13 A2999 RMK A01 T01290125  RH  098%=      5-min Rain = 0
KSW1 241807Z 29006KT 13/13 A2999 RMK A01 T01280125  RH  098%=      5-min Rain = 0
KSW1 241808Z 29005KT 13/13 A2999 RMK A01 T01280125  RH  098%=      5-min Rain = 0
KSW1 241809Z 29005KT 13/12 A2999 RMK A01 T01280124  RH  098%=      5-min Rain = 0
KSW1 241810Z 29005KT 13/12 A2999 RMK A01 T01270124  RH  098%=      5-min Rain = 0
KSW1 241811Z 31005KT 13/13 A2999 RMK A01 T01280125  RH  098%=      5-min Rain = 0
KSW1 241812Z 31006KT 13/13 A2999 RMK A01 T01280125  RH  098%=      5-min Rain = 0
KSW1 241813Z 31006KT 13/13 A2999 RMK A01 T01290125  RH  098%=      5-min Rain = 0
KSW1 241814Z 31005KT 13/13 A2999 RMK A01 T01280125  RH  098%=      5-min Rain = 0
KSW1 241815Z 32005KT 13/13 A2999 RMK A01 T01280125  RH  098%=      5-min Rain = 0
KSW1 241816Z 31005KT 13/13 A2998 RMK A01 T01280125  RH  098%=      5-min Rain = 0
KSW1 241817Z 31004KT 13/13 A2998 RMK A01 T01280125  RH  098%=      5-min Rain = 0
KSW1 241818Z 32005KT 13/13 A2998 RMK A01 T01290126  RH  098%=      5-min Rain = 0
KSW1 241819Z 31004KT 13/13 A2998 RMK A01 T01300127  RH  098%=      5-min Rain = 0
KSW1 241820Z 31006KT 13/13 A2998 RMK A01 T01300127  RH  098%=      5-min Rain = 0
KSW1 241821Z 31005KT 13/13 A2998 RMK A01 T01300127  RH  098%=      5-min Rain = 0
KSW1 241822Z 31006KT 13/13 A2998 RMK A01 T01290126  RH  098%=      5-min Rain = 0
KSW1 241823Z 30006KT 13/13 A2998 RMK A01 T01290126  RH  098%=      5-min Rain = 0
KSW1 241824Z 31005KT 13/13 A2998 RMK A01 T01280125  RH  098%=      5-min Rain = 0
KSW1 241825Z 30006KT 13/13 A2998 RMK A01 T01280125  RH  098%=      5-min Rain = 0
KSW1 241826Z 30006KT 13/12 A2998 RMK A01 T01280124  RH  098%=      5-min Rain = 0
KSW1 241827Z 29005KT 13/13 A2998 RMK A01 T01280125  RH  098%=      5-min Rain = 0
KSW1 241828Z 29005KT 13/13 A2998 RMK A01 T01280125  RH  098%=      5-min Rain = 0.01
KSW1 241829Z 32004KT 13/13 A2998 RMK A01 T01290126  RH  098%=      5-min Rain = 0
KSW1 241830Z 30004KT 13/13 A2998 RMK A01 T01290126  RH  098%=      5-min Rain = 0
KSW1 241831Z 30004KT 13/13 A2998 RMK A01 T01310128  RH  098%=      5-min Rain = 0
KSW1 241832Z 30005KT 13/13 A2998 RMK A01 T01310128  RH  098%=      5-min Rain = 0
KSW1 241833Z 30006KT 13/13 A2998 RMK A01 T01300127  RH  098%=      5-min Rain = 0
KSW1 241834Z 30004KT 13/13 A2998 RMK A01 T01290126  RH  098%=      5-min Rain = 0
KSW1 241835Z 32005KT 13/13 A2998 RMK A01 T01290125  RH  098%=      5-min Rain = 0
KSW1 241836Z 32005KT 13/13 A2998 RMK A01 T01290125  RH  098%=      5-min Rain = 0
KSW1 241837Z 31004KT 13/13 A2998 RMK A01 T01290126  RH  098%=      5-min Rain = 0
KSW1 241838Z 32004KT 13/13 A2998 RMK A01 T01300126  RH  098%=      5-min Rain = 0
KSW1 241839Z 32004KT 13/13 A2998 RMK A01 T01300126  RH  098%=      5-min Rain = 0
KSW1 241840Z 31005KT 13/13 A2998 RMK A01 T01300127  RH  098%=      5-min Rain = 0
KSW1 241841Z 32004KT 13/13 A2998 RMK A01 T01300126  RH  097%=      5-min Rain = 0
KSW1 241842Z 32004KT 13/13 A2998 RMK A01 T01290126  RH  098%=      5-min Rain = 0
KSW1 241843Z 31004KT 13/13 A2998 RMK A01 T01300126  RH  098%=      5-min Rain = 0
KSW1 241844Z 31004KT 13/13 A2998 RMK A01 T01300127  RH  098%=      5-min Rain = 0
KSW1 241845Z 31005KT 13/13 A2998 RMK A01 T01310127  RH  098%=      5-min Rain = 0
KSW1 241846Z 30005KT 13/13 A2998 RMK A01 T01300126  RH  097%=      5-min Rain = 0
KSW1 241847Z 32004KT 13/13 A2998 RMK A01 T01290125  RH  097%=      5-min Rain = 0
KSW1 241848Z 32003KT 13/13 A2998 RMK A01 T01300126  RH  098%=      5-min Rain = 0
KSW1 241849Z 31005KT 13/13 A2998 RMK A01 T01300127  RH  098%=      5-min Rain = 0
KSW1 241850Z 31005KT 13/13 A2998 RMK A01 T01300125  RH  097%=      5-min Rain = 0
KSW1 241851Z 31004KT 13/13 A2998 RMK A01 T01290125  RH  097%=      5-min Rain = 0
KSW1 241852Z 32006KT 13/13 A2998 RMK A01 T01290125  RH  097%=      5-min Rain = 0
KSW1 241853Z 32006KT 13/13 A2998 RMK A01 T01290125  RH  097%=      5-min Rain = 0
KSW1 241854Z 31004KT 13/13 A2998 RMK A01 T01290125  RH  097%=      5-min Rain = 0
KSW1 241855Z 31004KT 13/13 A2998 RMK A01 T01300126  RH  097%=      5-min Rain = 0
KSW1 241856Z 31005KT 13/13 A2998 RMK A01 T01310127  RH  097%=      5-min Rain = 0
KSW1 241857Z 32006KT 13/13 A2998 RMK A01 T01310126  RH  097%=      5-min Rain = 0
KSW1 241858Z 32006KT 13/13 A2997 RMK A01 T01300126  RH  097%=      5-min Rain = 0
KSW1 241859Z 32006KT 13/13 A2997 RMK A01 T01300125  RH  097%=      5-min Rain = 0
KSW1 241900Z 31006KT 13/13 A2997 RMK A01 T01300125  RH  097%=      5-min Rain = 0
KSW1 241901Z 30006KT 13/13 A2997 RMK A01 T01300125  RH  097%=      5-min Rain = 0
KSW1 241902Z 31004KT 13/13 A2997 RMK A01 T01300126  RH  097%=      5-min Rain = 0
KSW1 241903Z 31006KT 13/13 A2997 RMK A01 T01310126  RH  097%=      5-min Rain = 0
KSW1 241904Z 31005KT 13/13 A2997 RMK A01 T01300126  RH  097%=      5-min Rain = 0
KSW1 241905Z 31005KT 13/13 A2997 RMK A01 T01300126  RH  097%=      5-min Rain = 0
KSW1 241906Z 31006KT 13/13 A2997 RMK A01 T01310127  RH  097%=      5-min Rain = 0
KSW1 241907Z 31006KT 13/13 A2997 RMK A01 T01310127  RH  097%=      5-min Rain = 0
KSW1 241908Z 31007KT 13/13 A2997 RMK A01 T01310127  RH  097%=      5-min Rain = 0
KSW1 241909Z 30005KT 13/13 A2997 RMK A01 T01310127  RH  097%=      5-min Rain = 0
KSW1 241910Z 29004KT 13/13 A2997 RMK A01 T01330129  RH  097%=      5-min Rain = 0
KSW1 241911Z 29005KT 13/13 A2998 RMK A01 T01330129  RH  097%=      5-min Rain = 0
KSW1 241912Z 30006KT 13/13 A2998 RMK A01 T01330129  RH  097%=      5-min Rain = 0
KSW1 241913Z 30005KT 13/13 A2998 RMK A01 T01330128  RH  097%=      5-min Rain = 0
KSW1 241914Z 31005KT 13/13 A2998 RMK A01 T01330128  RH  097%=      5-min Rain = 0
KSW1 241915Z 32006KT 13/13 A2997 RMK A01 T01330128  RH  097%=      5-min Rain = 0
KSW1 241916Z 32007KT 13/13 A2997 RMK A01 T01320127  RH  097%=      5-min Rain = 0
KSW1 241917Z 31007KT 13/13 A2997 RMK A01 T01320126  RH  096%=      5-min Rain = 0
KSW1 241918Z 31007KT 13/13 A2997 RMK A01 T01310126  RH  096%=      5-min Rain = 0
KSW1 241919Z 31007KT 13/13 A2997 RMK A01 T01310126  RH  096%=      5-min Rain = 0
KSW1 241920Z 30006KT 13/13 A2997 RMK A01 T01320127  RH  097%=      5-min Rain = 0
KSW1 241921Z 31007KT 13/13 A2997 RMK A01 T01330128  RH  097%=      5-min Rain = 0
KSW1 241922Z 30007KT 13/13 A2997 RMK A01 T01330128  RH  097%=      5-min Rain = 0
KSW1 241923Z 31008KT 13/13 A2997 RMK A01 T01330127  RH  097%=      5-min Rain = 0
KSW1 241924Z 31008KT 13/13 A2997 RMK A01 T01320126  RH  096%=      5-min Rain = 0
KSW1 241925Z 31007KT 13/13 A2997 RMK A01 T01320126  RH  097%=      5-min Rain = 0
KSW1 241926Z 31007KT 13/13 A2997 RMK A01 T01320127  RH  097%=      5-min Rain = 0
KSW1 241927Z 31008KT 13/13 A2997 RMK A01 T01320127  RH  097%=      5-min Rain = 0
KSW1 241928Z 32008KT 13/13 A2997 RMK A01 T01320127  RH  096%=      5-min Rain = 0
KSW1 241929Z 31009KT 13/13 A2997 RMK A01 T01320126  RH  096%=      5-min Rain = 0
KSW1 241930Z 31010KT 13/13 A2997 RMK A01 T01310125  RH  096%=      5-min Rain = 0
KSW1 241931Z 32008KT 13/13 A2997 RMK A01 T01310125  RH  096%=      5-min Rain = 0
KSW1 241932Z 32009KT 13/13 A2997 RMK A01 T01310126  RH  097%=      5-min Rain = 0
KSW1 241933Z 32009KT 13/13 A2997 RMK A01 T01320126  RH  097%=      5-min Rain = 0
KSW1 241934Z 32009KT 13/13 A2996 RMK A01 T01320126  RH  097%=      5-min Rain = 0
KSW1 241935Z 32010KT 13/13 A2996 RMK A01 T01320127  RH  097%=      5-min Rain = 0
KSW1 241936Z 32009KT 13/13 A2996 RMK A01 T01320126  RH  096%=      5-min Rain = 0
KSW1 241937Z 32009KT 13/13 A2996 RMK A01 T01320126  RH  096%=      5-min Rain = 0
KSW1 241938Z 32010KT 13/13 A2996 RMK A01 T01320126  RH  096%=      5-min Rain = 0
KSW1 241939Z 32013KT 13/13 A2996 RMK A01 T01320126  RH  096%=      5-min Rain = 0
KSW1 241940Z 32013KT 13/12 A2996 RMK A01 T01310124  RH  096%=      5-min Rain = 0
KSW1 241941Z 32011KT 13/13 A2995 RMK A01 T01310125  RH  096%=      5-min Rain = 0
KSW1 241942Z 32010KT 13/13 A2995 RMK A01 T01330128  RH  097%=      5-min Rain = 0
KSW1 241943Z 33011KT 13/13 A2995 RMK A01 T01340129  RH  097%=      5-min Rain = 0
KSW1 241944Z 32012KT 13/13 A2995 RMK A01 T01340129  RH  096%=      5-min Rain = 0
KSW1 241945Z 33011KT 13/13 A2995 RMK A01 T01330127  RH  096%=      5-min Rain = 0
KSW1 241946Z 33010KT 13/13 A2995 RMK A01 T01330127  RH  096%=      5-min Rain = 0
KSW1 241947Z 33013KT 13/13 A2995 RMK A01 T01330127  RH  096%=      5-min Rain = 0
KSW1 241948Z 33011KT 13/13 A2995 RMK A01 T01330126  RH  096%=      5-min Rain = 0
KSW1 241949Z 34013KT 13/13 A2995 RMK A01 T01330127  RH  096%=      5-min Rain = 0
KSW1 241950Z 34012KT 13/13 A2995 RMK A01 T01320126  RH  096%=      5-min Rain = 0
KSW1 241951Z 33012KT 13/13 A2995 RMK A01 T01320126  RH  096%=      5-min Rain = 0
KSW1 241952Z 33011KT 13/13 A2995 RMK A01 T01320127  RH  096%=      5-min Rain = 0
KSW1 241953Z 34012KT 13/13 A2995 RMK A01 T01330127  RH  096%=      5-min Rain = 0
KSW1 241954Z 34014KT 13/13 A2995 RMK A01 T01320126  RH  096%=      5-min Rain = 0
KSW1 241955Z 33013KT 13/12 A2995 RMK A01 T01310124  RH  096%=      5-min Rain = 0
KSW1 241956Z 34011KT 13/13 A2995 RMK A01 T01310125  RH  096%=      5-min Rain = 0
KSW1 241957Z 34012KT 13/13 A2995 RMK A01 T01310126  RH  096%=      5-min Rain = 0
KSW1 241958Z 34012KT 13/13 A2995 RMK A01 T01310125  RH  096%=      5-min Rain = 0
KSW1 241959Z 34011KT 13/13 A2995 RMK A01 T01310125  RH  097%=      5-min Rain = 0
KSW1 242000Z 35011KT 13/13 A2995 RMK A01 T01310126  RH  097%=      5-min Rain = 0
KSW1 242001Z 34011KT 13/13 A2995 RMK A01 T01310126  RH  097%=      5-min Rain = 0
KSW1 242002Z 33012KT 13/13 A2995 RMK A01 T01300125  RH  096%=      5-min Rain = 0
KSW1 242003Z 33011KT 13/12 A2995 RMK A01 T01300124  RH  096%=      5-min Rain = 0
KSW1 242004Z 34011KT 13/12 A2995 RMK A01 T01300124  RH  096%=      5-min Rain = 0
KSW1 242005Z 34012KT 13/13 A2995 RMK A01 T01300125  RH  097%=      5-min Rain = 0
KSW1 242006Z 34010KT 13/12 A2995 RMK A01 T01290124  RH  096%=      5-min Rain = 0
KSW1 242007Z 33011KT 13/12 A2995 RMK A01 T01290123  RH  096%=      5-min Rain = 0
KSW1 242008Z 34009KT 13/12 A2995 RMK A01 T01290124  RH  096%=      5-min Rain = 0
KSW1 242009Z 34009KT 13/12 A2995 RMK A01 T01290124  RH  097%=      5-min Rain = 0
KSW1 242010Z 35009KT 13/12 A2995 RMK A01 T01290124  RH  096%=      5-min Rain = 0
KSW1 242011Z 35010KT 13/12 A2996 RMK A01 T01290124  RH  097%=      5-min Rain = 0
KSW1 242012Z 36009KT 13/12 A2996 RMK A01 T01290123  RH  096%=      5-min Rain = 0
KSW1 242013Z 36009KT 13/12 A2996 RMK A01 T01290123  RH  096%=      5-min Rain = 0
KSW1 242014Z 36008KT 13/12 A2996 RMK A01 T01280122  RH  096%=      5-min Rain = 0
KSW1 242015Z 36008KT 13/12 A2996 RMK A01 T01290122  RH  096%=      5-min Rain = 0
KSW1 242016Z 36007KT 13/12 A2996 RMK A01 T01280121  RH  096%=      5-min Rain = 0
KSW1 242017Z 36005KT 13/12 A2996 RMK A01 T01280121  RH  095%=      5-min Rain = 0
KSW1 242018Z 01005KT 13/12 A2996 RMK A01 T01300123  RH  096%=      5-min Rain = 0
KSW1 242019Z 03005KT 13/12 A2996 RMK A01 T01300123  RH  096%=      5-min Rain = 0
KSW1 242020Z 03006KT 13/12 A2996 RMK A01 T01310124  RH  096%=      5-min Rain = 0
KSW1 242021Z 03007KT 13/12 A2996 RMK A01 T01310124  RH  095%=      5-min Rain = 0
KSW1 242022Z 02006KT 13/12 A2996 RMK A01 T01310122  RH  094%=      5-min Rain = 0
KSW1 242023Z 02005KT 13/12 A2996 RMK A01 T01310122  RH  094%=      5-min Rain = 0
KSW1 242024Z 03004KT 13/12 A2996 RMK A01 T01320123  RH  094%=      5-min Rain = 0
KSW1 242025Z 03002KT 13/12 A2996 RMK A01 T01320123  RH  094%=      5-min Rain = 0
KSW1 242026Z 03003KT 13/12 A2996 RMK A01 T01330123  RH  094%=      5-min Rain = 0
KSW1 242027Z 09002KT 13/12 A2996 RMK A01 T01330123  RH  094%=      5-min Rain = 0
KSW1 242028Z 11002KT 13/12 A2996 RMK A01 T01340124  RH  094%=      5-min Rain = 0
KSW1 242029Z 11003KT 13/12 A2996 RMK A01 T01340124  RH  093%=      5-min Rain = 0
KSW1 242030Z 08002KT 13/12 A2996 RMK A01 T01340120  RH  092%=      5-min Rain = 0
KSW1 242031Z 09001KT 13/12 A2997 RMK A01 T01330122  RH  093%=      5-min Rain = 0
KSW1 242032Z 01001KT 14/12 A2997 RMK A01 T01350124  RH  093%=      5-min Rain = 0
KSW1 242033Z 36001KT 14/12 A2997 RMK A01 T01350122  RH  092%=      5-min Rain = 0
KSW1 242034Z 34001KT 14/12 A2997 RMK A01 T01350120  RH  091%=      5-min Rain = 0
KSW1 242035Z 35001KT 14/12 A2997 RMK A01 T01350119  RH  090%=      5-min Rain = 0
KSW1 242036Z 32001KT 14/12 A2997 RMK A01 T01350120  RH  091%=      5-min Rain = 0
KSW1 242037Z 32001KT 14/12 A2997 RMK A01 T01350118  RH  090%=      5-min Rain = 0
KSW1 242038Z 32000KT 14/12 A2997 RMK A01 T01350118  RH  090%=      5-min Rain = 0
KSW1 242039Z 32001KT 13/12 A2997 RMK A01 T01340117  RH  090%=      5-min Rain = 0
KSW1 242040Z 30001KT 13/12 A2997 RMK A01 T01340119  RH  091%=      5-min Rain = 0
KSW1 242041Z 32000KT 13/12 A2997 RMK A01 T01340119  RH  090%=      5-min Rain = 0
KSW1 242042Z 31001KT 13/12 A2997 RMK A01 T01340120  RH  091%=      5-min Rain = 0
KSW1 242043Z 30001KT 13/12 A2997 RMK A01 T01340121  RH  091%=      5-min Rain = 0
KSW1 242044Z 30001KT 14/12 A2997 RMK A01 T01350121  RH  091%=      5-min Rain = 0
KSW1 242045Z 30000KT 14/12 A2998 RMK A01 T01350120  RH  091%=      5-min Rain = 0
KSW1 242046Z 29000KT 13/12 A2998 RMK A01 T01340119  RH  091%=      5-min Rain = 0
KSW1 242047Z 32001KT 14/12 A2998 RMK A01 T01350120  RH  091%=      5-min Rain = 0
KSW1 242048Z 34000KT 14/12 A2998 RMK A01 T01350120  RH  091%=      5-min Rain = 0
KSW1 242049Z 34001KT 13/12 A2998 RMK A01 T01340119  RH  090%=      5-min Rain = 0
KSW1 242050Z 36001KT 13/12 A2998 RMK A01 T01340119  RH  091%=      5-min Rain = 0
KSW1 242051Z 00000KT 13/12 A2998 RMK A01 T01340119  RH  091%=      5-min Rain = 0
KSW1 242052Z 35000KT 13/12 A2998 RMK A01 T01340119  RH  091%=      5-min Rain = 0
KSW1 242053Z 35001KT 13/12 A2997 RMK A01 T01340120  RH  091%=      5-min Rain = 0
KSW1 242054Z 01001KT 13/12 A2997 RMK A01 T01340120  RH  091%=      5-min Rain = 0
KSW1 242055Z 01001KT 13/12 A2997 RMK A01 T01340119  RH  091%=      5-min Rain = 0
KSW1 242056Z 01001KT 13/12 A2997 RMK A01 T01340118  RH  090%=      5-min Rain = 0
KSW1 242057Z 01001KT 13/12 A2997 RMK A01 T01340119  RH  091%=      5-min Rain = 0
KSW1 242058Z 36001KT 13/12 A2997 RMK A01 T01340119  RH  090%=      5-min Rain = 0
KSW1 242059Z 00001KT 13/12 A2997 RMK A01 T01340119  RH  090%=      5-min Rain = 0
KSW1 242100Z 36001KT 13/12 A2997 RMK A01 T01340120  RH  091%=      5-min Rain = 0
KSW1 242101Z 36001KT 13/12 A2997 RMK A01 T01340118  RH  090%=      5-min Rain = 0
KSW1 242102Z 03002KT 14/12 A2997 RMK A01 T01350119  RH  090%=      5-min Rain = 0
KSW1 242103Z 05003KT 14/12 A2997 RMK A01 T01350121  RH  092%=      5-min Rain = 0
KSW1 242104Z 06003KT 14/12 A2996 RMK A01 T01350121  RH  092%=      5-min Rain = 0
KSW1 242105Z 06002KT 14/12 A2996 RMK A01 T01350122  RH  092%=      5-min Rain = 0
KSW1 242106Z 07002KT 14/12 A2996 RMK A01 T01360122  RH  091%=      5-min Rain = 0
KSW1 242107Z 06002KT 14/12 A2996 RMK A01 T01350123  RH  092%=      5-min Rain = 0
KSW1 242108Z 06002KT 14/12 A2996 RMK A01 T01350122  RH  092%=      5-min Rain = 0
KSW1 242109Z 07003KT 14/13 A2996 RMK A01 T01370126  RH  093%=      5-min Rain = 0
KSW1 242110Z 07003KT 14/12 A2995 RMK A01 T01370123  RH  091%=      5-min Rain = 0
KSW1 242111Z 07003KT 14/13 A2995 RMK A01 T01370125  RH  092%=      5-min Rain = 0
KSW1 242112Z 06003KT 14/12 A2995 RMK A01 T01380123  RH  091%=      5-min Rain = 0
KSW1 242113Z 07003KT 14/12 A2995 RMK A01 T01380123  RH  091%=      5-min Rain = 0
KSW1 242114Z 06003KT 14/12 A2995 RMK A01 T01380122  RH  090%=      5-min Rain = 0
KSW1 242115Z 07003KT 14/12 A2995 RMK A01 T01380122  RH  090%=      5-min Rain = 0
KSW1 242116Z 06004KT 14/12 A2995 RMK A01 T01390123  RH  090%=      5-min Rain = 0
KSW1 242117Z 05003KT 14/12 A2994 RMK A01 T01390121  RH  089%=      5-min Rain = 0
KSW1 242118Z 06004KT 14/12 A2994 RMK A01 T01390124  RH  091%=      5-min Rain = 0
KSW1 242119Z 06004KT 14/13 A2994 RMK A01 T01400125  RH  091%=      5-min Rain = 0
KSW1 242120Z 07004KT 14/13 A2994 RMK A01 T01410127  RH  092%=      5-min Rain = 0
KSW1 242121Z 04003KT 14/13 A2994 RMK A01 T01420130  RH  092%=      5-min Rain = 0
KSW1 242122Z 05003KT 14/13 A2994 RMK A01 T01420125  RH  090%=      5-min Rain = 0
KSW1 242123Z 06005KT 14/13 A2994 RMK A01 T01420128  RH  092%=      5-min Rain = 0
KSW1 242124Z 07004KT 14/13 A2994 RMK A01 T01420127  RH  091%=      5-min Rain = 0
KSW1 242125Z 07004KT 14/13 A2994 RMK A01 T01410125  RH  090%=      5-min Rain = 0
KSW1 242126Z 07004KT 14/12 A2994 RMK A01 T01400123  RH  089%=      5-min Rain = 0
KSW1 242127Z 08005KT 14/13 A2993 RMK A01 T01410125  RH  090%=      5-min Rain = 0
KSW1 242128Z 07004KT 14/12 A2993 RMK A01 T01420124  RH  089%=      5-min Rain = 0
KSW1 242129Z 07004KT 14/12 A2993 RMK A01 T01410120  RH  087%=      5-min Rain = 0
KSW1 242130Z 06005KT 14/12 A2993 RMK A01 T01400121  RH  088%=      5-min Rain = 0
KSW1 242131Z 05004KT 14/13 A2993 RMK A01 T01410127  RH  091%=      5-min Rain = 0
KSW1 242132Z 05005KT 14/13 A2993 RMK A01 T01430126  RH  090%=      5-min Rain = 0
KSW1 242133Z 04005KT 14/12 A2993 RMK A01 T01430124  RH  088%=      5-min Rain = 0
KSW1 242134Z 05004KT 14/12 A2993 RMK A01 T01420124  RH  089%=      5-min Rain = 0
KSW1 242135Z 03005KT 14/13 A2993 RMK A01 T01430127  RH  090%=      5-min Rain = 0
KSW1 242136Z 03006KT 14/12 A2993 RMK A01 T01430123  RH  088%=      5-min Rain = 0
KSW1 242137Z 03005KT 14/12 A2992 RMK A01 T01430122  RH  087%=      5-min Rain = 0
KSW1 242138Z 03005KT 14/13 A2992 RMK A01 T01430127  RH  090%=      5-min Rain = 0
KSW1 242139Z 03007KT 15/13 A2992 RMK A01 T01450128  RH  089%=      5-min Rain = 0
KSW1 242140Z 02008KT 15/13 A2992 RMK A01 T01460127  RH  089%=      5-min Rain = 0
KSW1 242141Z 03008KT 15/13 A2992 RMK A01 T01460126  RH  088%=      5-min Rain = 0
KSW1 242142Z 03009KT 15/13 A2992 RMK A01 T01460126  RH  088%=      5-min Rain = 0
KSW1 242143Z 03008KT 15/12 A2992 RMK A01 T01460124  RH  087%=      5-min Rain = 0
KSW1 242144Z 04009KT 15/13 A2992 RMK A01 T01460127  RH  089%=      5-min Rain = 0
KSW1 242145Z 04010KT 15/12 A2992 RMK A01 T01460124  RH  087%=      5-min Rain = 0
KSW1 242146Z 05007KT 15/13 A2992 RMK A01 T01460125  RH  087%=      5-min Rain = 0
KSW1 242147Z 04007KT 15/13 A2991 RMK A01 T01470127  RH  088%=      5-min Rain = 0
KSW1 242148Z 04008KT 15/13 A2991 RMK A01 T01470127  RH  087%=      5-min Rain = 0
KSW1 242149Z 05010KT 15/12 A2991 RMK A01 T01470122  RH  085%=      5-min Rain = 0
KSW1 242150Z 04011KT 15/12 A2991 RMK A01 T01460124  RH  087%=      5-min Rain = 0
KSW1 242151Z 04009KT 15/12 A2991 RMK A01 T01460123  RH  086%=      5-min Rain = 0
KSW1 242152Z 03008KT 15/13 A2991 RMK A01 T01460126  RH  088%=      5-min Rain = 0
KSW1 242153Z 04008KT 15/13 A2991 RMK A01 T01470128  RH  088%=      5-min Rain = 0
KSW1 242154Z 04007KT 15/13 A2991 RMK A01 T01490133  RH  090%=      5-min Rain = 0
KSW1 242155Z 04011KT 15/13 A2991 RMK A01 T01510129  RH  087%=      5-min Rain = 0
KSW1 242156Z 04010KT 15/12 A299 RMK A01 T01490121  RH  083%=      5-min Rain = 0
KSW1 242157Z 04012KT 15/12 A299 RMK A01 T01480123  RH  085%=      5-min Rain = 0
KSW1 242158Z 03012KT 15/12 A299 RMK A01 T01460120  RH  084%=      5-min Rain = 0
KSW1 242159Z 03012KT 15/12 A299 RMK A01 T01450120  RH  085%=      5-min Rain = 0
KSW1 242200Z 03012KT 15/12 A299 RMK A01 T01450122  RH  086%=      5-min Rain = 0
KSW1 242201Z 02011KT 14/12 A299 RMK A01 T01440124  RH  087%=      5-min Rain = 0
KSW1 242202Z 04009KT 15/13 A2989 RMK A01 T01450125  RH  088%=      5-min Rain = 0
KSW1 242203Z 04012KT 15/13 A2989 RMK A01 T01450125  RH  087%=      5-min Rain = 0
KSW1 242204Z 03011KT 15/12 A2989 RMK A01 T01450123  RH  087%=      5-min Rain = 0
KSW1 242205Z 03011KT 15/12 A2989 RMK A01 T01450124  RH  088%=      5-min Rain = 0
KSW1 242206Z 03010KT 14/13 A2989 RMK A01 T01440125  RH  088%=      5-min Rain = 0
KSW1 242207Z 04012KT 15/13 A2989 RMK A01 T01460128  RH  089%=      5-min Rain = 0
KSW1 242208Z 04011KT 15/13 A2989 RMK A01 T01460126  RH  088%=      5-min Rain = 0
KSW1 242209Z 04011KT 15/13 A2989 RMK A01 T01450127  RH  089%=      5-min Rain = 0
KSW1 242210Z 05010KT 15/13 A2989 RMK A01 T01450130  RH  091%=      5-min Rain = 0
KSW1 242211Z 04012KT 15/13 A2989 RMK A01 T01450127  RH  089%=      5-min Rain = 0
KSW1 242212Z 04013KT 15/13 A2989 RMK A01 T01450126  RH  088%=      5-min Rain = 0
KSW1 242213Z 04012KT 14/13 A2989 RMK A01 T01440127  RH  089%=      5-min Rain = 0
KSW1 242214Z 04013KT 14/13 A2989 RMK A01 T01440125  RH  088%=      5-min Rain = 0
KSW1 242215Z 04010KT 14/13 A2989 RMK A01 T01440125  RH  088%=      5-min Rain = 0
KSW1 242216Z 04010KT 14/13 A2989 RMK A01 T01440125  RH  088%=      5-min Rain = 0
KSW1 242217Z 04010KT 14/12 A2989 RMK A01 T01430124  RH  088%=      5-min Rain = 0
KSW1 242218Z 04009KT 14/13 A2989 RMK A01 T01440126  RH  089%=      5-min Rain = 0
KSW1 242219Z 05010KT 14/13 A2989 RMK A01 T01440126  RH  089%=      5-min Rain = 0
KSW1 242220Z 04009KT 14/13 A2989 RMK A01 T01440126  RH  088%=      5-min Rain = 0
KSW1 242221Z 05011KT 15/13 A2989 RMK A01 T01450127  RH  089%=      5-min Rain = 0
KSW1 242222Z 05012KT 14/13 A2989 RMK A01 T01440126  RH  089%=      5-min Rain = 0
KSW1 242223Z 05013KT 14/13 A2989 RMK A01 T01440125  RH  088%=      5-min Rain = 0
KSW1 242224Z 05013KT 14/12 A2989 RMK A01 T01440123  RH  087%=      5-min Rain = 0
KSW1 242225Z 05012KT 14/13 A2988 RMK A01 T01430125  RH  088%=      5-min Rain = 0
KSW1 242226Z 05010KT 14/13 A2988 RMK A01 T01440126  RH  089%=      5-min Rain = 0
KSW1 242227Z 06009KT 14/13 A2988 RMK A01 T01440127  RH  090%=      5-min Rain = 0
KSW1 242228Z 06010KT 14/13 A2988 RMK A01 T01440127  RH  089%=      5-min Rain = 0
KSW1 242229Z 05012KT 14/13 A2988 RMK A01 T01440125  RH  088%=      5-min Rain = 0
KSW1 242230Z 05012KT 14/12 A2988 RMK A01 T01440124  RH  088%=      5-min Rain = 0
KSW1 242231Z 05010KT 14/12 A2988 RMK A01 T01430123  RH  088%=      5-min Rain = 0
KSW1 242232Z 05009KT 14/13 A2988 RMK A01 T01430125  RH  089%=      5-min Rain = 0
KSW1 242233Z 06009KT 14/13 A2988 RMK A01 T01430126  RH  089%=      5-min Rain = 0
KSW1 242234Z 06010KT 14/13 A2988 RMK A01 T01440127  RH  089%=      5-min Rain = 0
KSW1 242235Z 05008KT 14/13 A2988 RMK A01 T01440128  RH  090%=      5-min Rain = 0
KSW1 242236Z 05011KT 14/13 A2988 RMK A01 T01440127  RH  089%=      5-min Rain = 0
KSW1 242237Z 05012KT 14/13 A2988 RMK A01 T01440125  RH  088%=      5-min Rain = 0
KSW1 242238Z 05012KT 14/12 A2988 RMK A01 T01440124  RH  088%=      5-min Rain = 0
KSW1 242239Z 05012KT 14/12 A2988 RMK A01 T01430121  RH  087%=      5-min Rain = 0
KSW1 242240Z 05012KT 14/12 A2988 RMK A01 T01420120  RH  087%=      5-min Rain = 0
KSW1 242241Z 05010KT 14/12 A2988 RMK A01 T01420122  RH  087%=      5-min Rain = 0
KSW1 242242Z 05008KT 14/12 A2988 RMK A01 T01420124  RH  089%=      5-min Rain = 0
KSW1 242243Z 05006KT 14/12 A2988 RMK A01 T01420124  RH  089%=      5-min Rain = 0
KSW1 242244Z 05006KT 14/12 A2989 RMK A01 T01420124  RH  089%=      5-min Rain = 0
KSW1 242245Z 04006KT 14/12 A2989 RMK A01 T01420124  RH  089%=      5-min Rain = 0
KSW1 242246Z 04004KT 14/12 A2989 RMK A01 T01420124  RH  089%=      5-min Rain = 0
KSW1 242247Z 03005KT 14/13 A2989 RMK A01 T01420125  RH  089%=      5-min Rain = 0
KSW1 242248Z 03003KT 14/12 A2989 RMK A01 T01430123  RH  088%=      5-min Rain = 0
KSW1 242249Z 04004KT 14/12 A299 RMK A01 T01430124  RH  088%=      5-min Rain = 0
KSW1 242250Z 04003KT 14/12 A299 RMK A01 T01420121  RH  087%=      5-min Rain = 0
KSW1 242251Z 07003KT 14/12 A299 RMK A01 T01420122  RH  087%=      5-min Rain = 0
KSW1 242252Z 07001KT 14/12 A299 RMK A01 T01420119  RH  086%=      5-min Rain = 0
KSW1 242253Z 06001KT 14/12 A299 RMK A01 T01410119  RH  086%=      5-min Rain = 0
KSW1 242254Z 06001KT 14/12 A299 RMK A01 T01410122  RH  088%=      5-min Rain = 0
KSW1 242255Z 06001KT 14/12 A299 RMK A01 T01420123  RH  088%=      5-min Rain = 0
KSW1 242256Z 06001KT 14/12 A299 RMK A01 T01430123  RH  088%=      5-min Rain = 0
KSW1 242257Z 07001KT 14/12 A2991 RMK A01 T01430121  RH  087%=      5-min Rain = 0
KSW1 242258Z 05001KT 14/12 A2991 RMK A01 T01430122  RH  087%=      5-min Rain = 0
KSW1 242259Z 35002KT 14/12 A2991 RMK A01 T01420120  RH  087%=      5-min Rain = 0
KSW1 242300Z 34003KT 14/12 A2991 RMK A01 T01420119  RH  086%=      5-min Rain = 0
KSW1 242301Z 32003KT 14/12 A2991 RMK A01 T01420118  RH  086%=      5-min Rain = 0
KSW1 242302Z 31003KT 14/12 A2991 RMK A01 T01410117  RH  085%=      5-min Rain = 0
KSW1 242303Z 30002KT 14/12 A2991 RMK A01 T01410116  RH  085%=      5-min Rain = 0
KSW1 242304Z 28002KT 14/12 A2991 RMK A01 T01410115  RH  084%=      5-min Rain = 0
KSW1 242305Z 27002KT 14/11 A2991 RMK A01 T01410113  RH  083%=      5-min Rain = 0
KSW1 242306Z 27002KT 14/11 A2991 RMK A01 T01410113  RH  083%=      5-min Rain = 0
KSW1 242307Z 26002KT 14/11 A2991 RMK A01 T01410112  RH  083%=      5-min Rain = 0
KSW1 242308Z 25002KT 14/11 A2991 RMK A01 T01400112  RH  083%=      5-min Rain = 0
KSW1 242309Z 25002KT 14/11 A2991 RMK A01 T01410113  RH  084%=      5-min Rain = 0
KSW1 242310Z 25003KT 14/12 A2991 RMK A01 T01410117  RH  085%=      5-min Rain = 0
KSW1 242311Z 26003KT 14/12 A2991 RMK A01 T01410115  RH  084%=      5-min Rain = 0
KSW1 242312Z 26003KT 14/12 A2991 RMK A01 T01410117  RH  085%=      5-min Rain = 0
KSW1 242313Z 27003KT 14/12 A2991 RMK A01 T01420115  RH  084%=      5-min Rain = 0
KSW1 242314Z 27003KT 14/12 A2991 RMK A01 T01420116  RH  084%=      5-min Rain = 0
KSW1 242315Z 28003KT 14/12 A2991 RMK A01 T01420118  RH  085%=      5-min Rain = 0
KSW1 242316Z 29003KT 14/12 A2991 RMK A01 T01420118  RH  086%=      5-min Rain = 0
KSW1 242317Z 28004KT 14/12 A2991 RMK A01 T01420119  RH  086%=      5-min Rain = 0
KSW1 242318Z 28005KT 14/12 A2991 RMK A01 T01420119  RH  086%=      5-min Rain = 0
KSW1 242319Z 27004KT 14/12 A2991 RMK A01 T01420120  RH  087%=      5-min Rain = 0
KSW1 242320Z 28003KT 14/12 A2991 RMK A01 T01420122  RH  088%=      5-min Rain = 0
KSW1 242321Z 30004KT 14/12 A2991 RMK A01 T01420124  RH  088%=      5-min Rain = 0
KSW1 242322Z 30005KT 14/12 A299 RMK A01 T01430121  RH  087%=      5-min Rain = 0
KSW1 242323Z 30005KT 14/12 A299 RMK A01 T01430122  RH  087%=      5-min Rain = 0
KSW1 242324Z 30005KT 14/12 A299 RMK A01 T01430122  RH  087%=      5-min Rain = 0
KSW1 242325Z 29005KT 14/12 A299 RMK A01 T01430122  RH  087%=      5-min Rain = 0
KSW1 242326Z 29004KT 14/12 A299 RMK A01 T01430122  RH  087%=      5-min Rain = 0
KSW1 242327Z 28005KT 14/12 A299 RMK A01 T01430122  RH  087%=      5-min Rain = 0
KSW1 242328Z 28005KT 14/12 A299 RMK A01 T01420121  RH  087%=      5-min Rain = 0
KSW1 242329Z 29004KT 14/12 A299 RMK A01 T01420123  RH  088%=      5-min Rain = 0
KSW1 242330Z 30004KT 14/12 A299 RMK A01 T01420123  RH  088%=      5-min Rain = 0
KSW1 242331Z 30004KT 14/12 A299 RMK A01 T01420124  RH  089%=      5-min Rain = 0
KSW1 242332Z 30004KT 14/12 A299 RMK A01 T01430123  RH  088%=      5-min Rain = 0
KSW1 242333Z 28003KT 14/12 A299 RMK A01 T01430124  RH  088%=      5-min Rain = 0
KSW1 242334Z 28004KT 14/12 A299 RMK A01 T01430124  RH  088%=      5-min Rain = 0
KSW1 242335Z 28005KT 14/12 A299 RMK A01 T01430122  RH  087%=      5-min Rain = 0
KSW1 242336Z 28005KT 14/12 A299 RMK A01 T01430117  RH  085%=      5-min Rain = 0
KSW1 242337Z 29005KT 14/12 A299 RMK A01 T01430117  RH  085%=      5-min Rain = 0
KSW1 242338Z 29004KT 14/12 A2989 RMK A01 T01430118  RH  085%=      5-min Rain = 0
KSW1 242339Z 29005KT 14/12 A2989 RMK A01 T01430119  RH  085%=      5-min Rain = 0
KSW1 242340Z 29005KT 14/12 A299 RMK A01 T01430119  RH  086%=      5-min Rain = 0
KSW1 242341Z 28005KT 14/12 A299 RMK A01 T01430118  RH  085%=      5-min Rain = 0
KSW1 242342Z 29004KT 14/12 A299 RMK A01 T01430118  RH  085%=      5-min Rain = 0
KSW1 242343Z 29004KT 14/12 A299 RMK A01 T01430118  RH  085%=      5-min Rain = 0
KSW1 242344Z 29003KT 14/12 A299 RMK A01 T01430119  RH  086%=      5-min Rain = 0
KSW1 242345Z 29003KT 14/12 A299 RMK A01 T01430119  RH  086%=      5-min Rain = 0
KSW1 242346Z 29004KT 14/12 A299 RMK A01 T01430120  RH  086%=      5-min Rain = 0
KSW1 242347Z 27003KT 14/12 A299 RMK A01 T01430118  RH  085%=      5-min Rain = 0
KSW1 242348Z 27002KT 14/12 A299 RMK A01 T01430120  RH  086%=      5-min Rain = 0
KSW1 242349Z 26003KT 14/12 A299 RMK A01 T01430119  RH  086%=      5-min Rain = 0
KSW1 242350Z 25003KT 14/12 A299 RMK A01 T01430119  RH  086%=      5-min Rain = 0
KSW1 242351Z 25005KT 14/12 A299 RMK A01 T01430119  RH  085%=      5-min Rain = 0
KSW1 242352Z 26005KT 14/12 A299 RMK A01 T01430116  RH  084%=      5-min Rain = 0
KSW1 242353Z 25003KT 14/12 A299 RMK A01 T01420116  RH  084%=      5-min Rain = 0
KSW1 242354Z 24003KT 14/12 A299 RMK A01 T01420118  RH  085%=      5-min Rain = 0
KSW1 242355Z 25004KT 14/12 A299 RMK A01 T01420118  RH  086%=      5-min Rain = 0
KSW1 242356Z 25004KT 14/12 A299 RMK A01 T01420118  RH  085%=      5-min Rain = 0
KSW1 242357Z 25005KT 14/12 A299 RMK A01 T01420119  RH  086%=      5-min Rain = 0
KSW1 242358Z 26006KT 14/12 A299 RMK A01 T01420117  RH  085%=      5-min Rain = 0
KSW1 242359Z 25006KT 14/12 A299 RMK A01 T01420115  RH  084%=      5-min Rain = 0
KSW1 250000Z 24005KT 14/12 A299 RMK A01 T01420117  RH  085%=      5-min Rain = 0
KSW1 250001Z 24005KT 14/12 A299 RMK A01 T01420119  RH  086%=      5-min Rain = 0
KSW1 250002Z 24005KT 14/12 A299 RMK A01 T01410118  RH  086%=      5-min Rain = 0
KSW1 250003Z 24004KT 14/12 A299 RMK A01 T01410119  RH  086%=      5-min Rain = 0
KSW1 250004Z 24004KT 14/12 A299 RMK A01 T01410119  RH  087%=      5-min Rain = 0
KSW1 250005Z 24005KT 14/12 A299 RMK A01 T01410118  RH  086%=      5-min Rain = 0
KSW1 250006Z 24004KT 14/12 A299 RMK A01 T01410120  RH  087%=      5-min Rain = 0
KSW1 250007Z 24004KT 14/12 A299 RMK A01 T01410119  RH  086%=      5-min Rain = 0
KSW1 250008Z 24004KT 14/12 A299 RMK A01 T01410121  RH  088%=      5-min Rain = 0
KSW1 250009Z 24005KT 14/12 A299 RMK A01 T01410120  RH  087%=      5-min Rain = 0
KSW1 250010Z 23004KT 14/12 A299 RMK A01 T01400119  RH  087%=      5-min Rain = 0
KSW1 250011Z 23004KT 14/12 A299 RMK A01 T01400120  RH  088%=      5-min Rain = 0
KSW1 250012Z 22003KT 14/12 A299 RMK A01 T01400119  RH  087%=      5-min Rain = 0
KSW1 250013Z 23004KT 14/12 A299 RMK A01 T01400120  RH  087%=      5-min Rain = 0
KSW1 250014Z 23005KT 14/12 A299 RMK A01 T01400120  RH  087%=      5-min Rain = 0
KSW1 250015Z 23005KT 14/12 A299 RMK A01 T01400118  RH  086%=      5-min Rain = 0
KSW1 250016Z 24005KT 14/12 A299 RMK A01 T01400118  RH  086%=      5-min Rain = 0
KSW1 250017Z 24005KT 14/12 A299 RMK A01 T01400117  RH  086%=      5-min Rain = 0
KSW1 250018Z 24005KT 14/12 A299 RMK A01 T01400118  RH  087%=      5-min Rain = 0
KSW1 250019Z 24005KT 14/12 A299 RMK A01 T01400117  RH  086%=      5-min Rain = 0
KSW1 250020Z 24004KT 14/12 A299 RMK A01 T01400118  RH  087%=      5-min Rain = 0
KSW1 250021Z 24004KT 14/12 A299 RMK A01 T01400118  RH  087%=      5-min Rain = 0
KSW1 250022Z 24005KT 14/12 A299 RMK A01 T01390118  RH  087%=      5-min Rain = 0
KSW1 250023Z 24004KT 14/12 A299 RMK A01 T01390118  RH  087%=      5-min Rain = 0
KSW1 250024Z 23005KT 14/12 A299 RMK A01 T01390119  RH  088%=      5-min Rain = 0
KSW1 250025Z 23004KT 14/12 A299 RMK A01 T01390119  RH  087%=      5-min Rain = 0
KSW1 250026Z 22004KT 14/12 A299 RMK A01 T01400119  RH  088%=      5-min Rain = 0
KSW1 250027Z 22004KT 14/12 A299 RMK A01 T01400120  RH  088%=      5-min Rain = 0
KSW1 250028Z 22004KT 14/12 A299 RMK A01 T01400120  RH  088%=      5-min Rain = 0
KSW1 250029Z 22005KT 14/12 A299 RMK A01 T01390119  RH  088%=      5-min Rain = 0
KSW1 250030Z 22004KT 14/12 A299 RMK A01 T01390119  RH  088%=      5-min Rain = 0
KSW1 250031Z 22004KT 14/12 A299 RMK A01 T01390120  RH  088%=      5-min Rain = 0
KSW1 250032Z 22004KT 14/12 A299 RMK A01 T01390120  RH  088%=      5-min Rain = 0
KSW1 250033Z 23004KT 14/12 A299 RMK A01 T01390119  RH  088%=      5-min Rain = 0
KSW1 250034Z 25003KT 14/12 A299 RMK A01 T01390119  RH  088%=      5-min Rain = 0
KSW1 250035Z 25003KT 14/12 A299 RMK A01 T01390119  RH  088%=      5-min Rain = 0
KSW1 250036Z 26002KT 14/12 A299 RMK A01 T01390120  RH  088%=      5-min Rain = 0
KSW1 250037Z 26003KT 14/12 A299 RMK A01 T01390119  RH  088%=      5-min Rain = 0
KSW1 250038Z 27003KT 14/12 A299 RMK A01 T01380119  RH  088%=      5-min Rain = 0
KSW1 250039Z 26004KT 14/12 A2991 RMK A01 T01380120  RH  088%=      5-min Rain = 0
KSW1 250040Z 26004KT 14/12 A2991 RMK A01 T01380119  RH  088%=      5-min Rain = 0
KSW1 250041Z 26005KT 14/12 A2991 RMK A01 T01380119  RH  088%=      5-min Rain = 0
KSW1 250042Z 25004KT 14/12 A2991 RMK A01 T01380120  RH  089%=      5-min Rain = 0
KSW1 250043Z 25004KT 14/12 A2991 RMK A01 T01380120  RH  089%=      5-min Rain = 0
KSW1 250044Z 25004KT 14/12 A2991 RMK A01 T01380120  RH  089%=      5-min Rain = 0
KSW1 250045Z 25004KT 14/12 A2991 RMK A01 T01370121  RH  090%=      5-min Rain = 0
KSW1 250046Z 25004KT 14/12 A2991 RMK A01 T01380121  RH  090%=      5-min Rain = 0
KSW1 250047Z 26003KT 14/12 A2991 RMK A01 T01380121  RH  090%=      5-min Rain = 0
KSW1 250048Z 25003KT 14/12 A2991 RMK A01 T01380121  RH  090%=      5-min Rain = 0
KSW1 250049Z 26004KT 14/12 A2991 RMK A01 T01380121  RH  090%=      5-min Rain = 0
KSW1 250050Z 26003KT 14/12 A2991 RMK A01 T01380121  RH  090%=      5-min Rain = 0
KSW1 250051Z 26004KT 14/12 A2991 RMK A01 T01380121  RH  090%=      5-min Rain = 0
KSW1 250052Z 26004KT 14/12 A2991 RMK A01 T01380121  RH  089%=      5-min Rain = 0
KSW1 250053Z 26004KT 14/12 A2991 RMK A01 T01380121  RH  089%=      5-min Rain = 0
KSW1 250054Z 26004KT 14/12 A2991 RMK A01 T01380120  RH  089%=      5-min Rain = 0
KSW1 250055Z 26004KT 14/12 A2991 RMK A01 T01380121  RH  090%=      5-min Rain = 0
KSW1 250056Z 27004KT 14/12 A2991 RMK A01 T01380120  RH  089%=      5-min Rain = 0
KSW1 250057Z 27004KT 14/12 A2991 RMK A01 T01380121  RH  089%=      5-min Rain = 0
KSW1 250058Z 27004KT 14/12 A2991 RMK A01 T01380120  RH  089%=      5-min Rain = 0
KSW1 250059Z 27004KT 14/12 A2991 RMK A01 T01380121  RH  089%=      5-min Rain = 0
KSW1 250100Z 27003KT 14/12 A2991 RMK A01 T01380121  RH  089%=      5-min Rain = 0
KSW1 250101Z 27004KT 14/12 A2991 RMK A01 T01380122  RH  090%=      5-min Rain = 0
KSW1 250102Z 27004KT 14/12 A2991 RMK A01 T01380121  RH  089%=      5-min Rain = 0
KSW1 250103Z 27004KT 14/12 A2991 RMK A01 T01380121  RH  090%=      5-min Rain = 0
KSW1 250104Z 27005KT 14/12 A2991 RMK A01 T01380122  RH  090%=      5-min Rain = 0
KSW1 250105Z 27005KT 14/12 A2991 RMK A01 T01380121  RH  089%=      5-min Rain = 0
KSW1 250106Z 26005KT 14/12 A2991 RMK A01 T01390121  RH  089%=      5-min Rain = 0
KSW1 250107Z 26004KT 14/12 A2991 RMK A01 T01390122  RH  089%=      5-min Rain = 0
KSW1 250108Z 27004KT 14/12 A2991 RMK A01 T01390121  RH  089%=      5-min Rain = 0
KSW1 250109Z 26004KT 14/12 A2991 RMK A01 T01390122  RH  090%=      5-min Rain = 0
KSW1 250110Z 27006KT 14/12 A2991 RMK A01 T01390122  RH  090%=      5-min Rain = 0
KSW1 250111Z 27005KT 14/12 A2991 RMK A01 T01390122  RH  090%=      5-min Rain = 0
KSW1 250112Z 27005KT 14/12 A2991 RMK A01 T01380122  RH  090%=      5-min Rain = 0
KSW1 250113Z 27004KT 14/12 A2991 RMK A01 T01390123  RH  090%=      5-min Rain = 0
KSW1 250114Z 27004KT 14/12 A2991 RMK A01 T01390123  RH  090%=      5-min Rain = 0
KSW1 250115Z 27005KT 14/12 A2991 RMK A01 T01380123  RH  090%=      5-min Rain = 0
KSW1 250116Z 27005KT 14/12 A2991 RMK A01 T01380122  RH  090%=      5-min Rain = 0
KSW1 250117Z 27005KT 14/12 A2991 RMK A01 T01380122  RH  090%=      5-min Rain = 0
KSW1 250118Z 27005KT 14/12 A2991 RMK A01 T01380122  RH  090%=      5-min Rain = 0
KSW1 250119Z 26005KT 14/12 A2991 RMK A01 T01380122  RH  090%=      5-min Rain = 0
KSW1 250120Z 26005KT 14/12 A2991 RMK A01 T01370122  RH  090%=      5-min Rain = 0
KSW1 250121Z 26005KT 14/12 A2991 RMK A01 T01370122  RH  090%=      5-min Rain = 0
KSW1 250122Z 25005KT 14/12 A2991 RMK A01 T01370122  RH  090%=      5-min Rain = 0
KSW1 250123Z 25005KT 14/12 A2991 RMK A01 T01370121  RH  090%=      5-min Rain = 0
KSW1 250124Z 25005KT 14/12 A2991 RMK A01 T01370122  RH  091%=      5-min Rain = 0
KSW1 250125Z 24004KT 14/12 A2991 RMK A01 T01370122  RH  091%=      5-min Rain = 0
KSW1 250126Z 25005KT 14/12 A2991 RMK A01 T01360122  RH  091%=      5-min Rain = 0
KSW1 250127Z 25004KT 14/12 A2991 RMK A01 T01360122  RH  091%=      5-min Rain = 0
KSW1 250128Z 25004KT 14/12 A2991 RMK A01 T01360122  RH  091%=      5-min Rain = 0
KSW1 250129Z 25003KT 14/12 A2991 RMK A01 T01360122  RH  092%=      5-min Rain = 0
KSW1 250130Z 24003KT 14/12 A2991 RMK A01 T01360123  RH  092%=      5-min Rain = 0
KSW1 250131Z 24003KT 14/12 A2991 RMK A01 T01350123  RH  092%=      5-min Rain = 0
KSW1 250132Z 24003KT 14/12 A2991 RMK A01 T01350123  RH  092%=      5-min Rain = 0
KSW1 250133Z 25003KT 14/12 A2991 RMK A01 T01350123  RH  093%=      5-min Rain = 0
KSW1 250134Z 25003KT 13/12 A2991 RMK A01 T01340123  RH  093%=      5-min Rain = 0
KSW1 250135Z 25003KT 13/12 A2991 RMK A01 T01340123  RH  093%=      5-min Rain = 0
KSW1 250136Z 25003KT 13/12 A2991 RMK A01 T01340123  RH  093%=      5-min Rain = 0
KSW1 250137Z 25003KT 13/12 A2991 RMK A01 T01340123  RH  093%=      5-min Rain = 0
KSW1 250138Z 26003KT 13/12 A2991 RMK A01 T01330123  RH  093%=      5-min Rain = 0
KSW1 250139Z 26003KT 13/12 A2991 RMK A01 T01330123  RH  093%=      5-min Rain = 0
KSW1 250140Z 27004KT 13/12 A2991 RMK A01 T01330123  RH  093%=      5-min Rain = 0
KSW1 250141Z 27003KT 13/12 A2991 RMK A01 T01330123  RH  094%=      5-min Rain = 0
KSW1 250142Z 27004KT 13/12 A2991 RMK A01 T01330123  RH  094%=      5-min Rain = 0
KSW1 250143Z 26004KT 13/12 A2991 RMK A01 T01330123  RH  093%=      5-min Rain = 0
KSW1 250144Z 26004KT 13/12 A2991 RMK A01 T01330122  RH  093%=      5-min Rain = 0
KSW1 250145Z 26004KT 13/12 A2991 RMK A01 T01330123  RH  093%=      5-min Rain = 0
KSW1 250146Z 26004KT 13/12 A2991 RMK A01 T01330122  RH  093%=      5-min Rain = 0
KSW1 250147Z 25004KT 13/12 A2991 RMK A01 T01330122  RH  093%=      5-min Rain = 0
KSW1 250148Z 25004KT 13/12 A2991 RMK A01 T01330122  RH  093%=      5-min Rain = 0
KSW1 250149Z 26004KT 13/12 A2991 RMK A01 T01330122  RH  093%=      5-min Rain = 0
KSW1 250150Z 26003KT 13/12 A2991 RMK A01 T01320122  RH  093%=      5-min Rain = 0
KSW1 250151Z 26004KT 13/12 A2991 RMK A01 T01330122  RH  093%=      5-min Rain = 0
KSW1 250152Z 25004KT 13/12 A2991 RMK A01 T01330122  RH  093%=      5-min Rain = 0
KSW1 250153Z 25004KT 13/12 A2991 RMK A01 T01330122  RH  093%=      5-min Rain = 0
KSW1 250154Z 25004KT 13/12 A2991 RMK A01 T01330122  RH  093%=      5-min Rain = 0
KSW1 250155Z 24005KT 13/12 A2991 RMK A01 T01320122  RH  093%=      5-min Rain = 0
KSW1 250156Z 24004KT 13/12 A2991 RMK A01 T01330123  RH  093%=      5-min Rain = 0
KSW1 250157Z 23004KT 13/12 A2991 RMK A01 T01320122  RH  094%=      5-min Rain = 0
KSW1 250158Z 23005KT 13/12 A2991 RMK A01 T01320122  RH  094%=      5-min Rain = 0
KSW1 250159Z 23005KT 13/12 A2991 RMK A01 T01320122  RH  094%=      5-min Rain = 0
KSW1 250200Z 22005KT 13/12 A2991 RMK A01 T01320122  RH  093%=      5-min Rain = 0
KSW1 250201Z 23005KT 13/12 A2991 RMK A01 T01320121  RH  093%=      5-min Rain = 0
KSW1 250202Z 23005KT 13/12 A2991 RMK A01 T01320121  RH  093%=      5-min Rain = 0
KSW1 250203Z 23005KT 13/12 A2991 RMK A01 T01320121  RH  093%=      5-min Rain = 0
KSW1 250204Z 23005KT 13/12 A2991 RMK A01 T01320121  RH  093%=      5-min Rain = 0
KSW1 250205Z 23005KT 13/12 A2991 RMK A01 T01320122  RH  093%=      5-min Rain = 0
KSW1 250206Z 23005KT 13/12 A2991 RMK A01 T01320122  RH  093%=      5-min Rain = 0
KSW1 250207Z 23005KT 13/12 A2991 RMK A01 T01320122  RH  093%=      5-min Rain = 0
KSW1 250208Z 22004KT 13/12 A2991 RMK A01 T01320122  RH  093%=      5-min Rain = 0
KSW1 250209Z 22003KT 13/12 A2991 RMK A01 T01320121  RH  093%=      5-min Rain = 0
KSW1 250210Z 21004KT 13/12 A2991 RMK A01 T01320121  RH  093%=      5-min Rain = 0
KSW1 250211Z 20002KT 13/12 A2991 RMK A01 T01320122  RH  093%=      5-min Rain = 0
KSW1 250212Z 19002KT 13/12 A2991 RMK A01 T01320122  RH  093%=      5-min Rain = 0
KSW1 250213Z 17001KT 13/12 A2991 RMK A01 T01320121  RH  093%=      5-min Rain = 0
KSW1 250214Z 15001KT 13/12 A2991 RMK A01 T01320121  RH  093%=      5-min Rain = 0
KSW1 250215Z 13002KT 13/12 A2991 RMK A01 T01310121  RH  093%=      5-min Rain = 0
KSW1 250216Z 12002KT 13/12 A2991 RMK A01 T01310120  RH  093%=      5-min Rain = 0
KSW1 250217Z 12003KT 13/12 A2991 RMK A01 T01300120  RH  093%=      5-min Rain = 0
KSW1 250218Z 13003KT 13/12 A2991 RMK A01 T01300120  RH  094%=      5-min Rain = 0
KSW1 250219Z 14003KT 13/12 A2991 RMK A01 T01300120  RH  094%=      5-min Rain = 0
KSW1 250220Z 14004KT 13/12 A2991 RMK A01 T01290120  RH  094%=      5-min Rain = 0
KSW1 250221Z 15003KT 13/12 A2991 RMK A01 T01290120  RH  094%=      5-min Rain = 0
KSW1 250222Z 15004KT 13/12 A2991 RMK A01 T01290119  RH  094%=      5-min Rain = 0
KSW1 250223Z 16004KT 13/12 A2991 RMK A01 T01290119  RH  094%=      5-min Rain = 0
KSW1 250224Z 16003KT 13/12 A2991 RMK A01 T01290119  RH  094%=      5-min Rain = 0
KSW1 250225Z 17003KT 13/12 A2991 RMK A01 T01290118  RH  093%=      5-min Rain = 0
KSW1 250226Z 17003KT 13/12 A2991 RMK A01 T01290118  RH  093%=      5-min Rain = 0
KSW1 250227Z 17003KT 13/12 A2991 RMK A01 T01290118  RH  093%=      5-min Rain = 0
KSW1 250228Z 17004KT 13/12 A2991 RMK A01 T01290118  RH  093%=      5-min Rain = 0
KSW1 250229Z 18005KT 13/12 A2991 RMK A01 T01290118  RH  093%=      5-min Rain = 0
KSW1 250230Z 18005KT 13/12 A2991 RMK A01 T01290117  RH  092%=      5-min Rain = 0
KSW1 250231Z 18005KT 13/12 A2991 RMK A01 T01300117  RH  092%=      5-min Rain = 0
KSW1 250232Z 19005KT 13/12 A2991 RMK A01 T01300117  RH  092%=      5-min Rain = 0
KSW1 250233Z 19004KT 13/12 A2991 RMK A01 T01310117  RH  092%=      5-min Rain = 0
KSW1 250234Z 19005KT 13/12 A2991 RMK A01 T01320117  RH  091%=      5-min Rain = 0
KSW1 250235Z 19005KT 13/12 A2991 RMK A01 T01320116  RH  090%=      5-min Rain = 0
KSW1 250236Z 19004KT 13/12 A2991 RMK A01 T01320117  RH  090%=      5-min Rain = 0
KSW1 250237Z 19004KT 13/12 A2991 RMK A01 T01330118  RH  091%=      5-min Rain = 0
KSW1 250238Z 19004KT 13/12 A2991 RMK A01 T01320118  RH  091%=      5-min Rain = 0
KSW1 250239Z 19004KT 13/12 A2991 RMK A01 T01320118  RH  091%=      5-min Rain = 0
KSW1 250240Z 19004KT 13/12 A2991 RMK A01 T01320118  RH  091%=      5-min Rain = 0
KSW1 250241Z 19005KT 13/12 A2991 RMK A01 T01320118  RH  091%=      5-min Rain = 0
KSW1 250242Z 19004KT 13/12 A2991 RMK A01 T01320118  RH  091%=      5-min Rain = 0
KSW1 250243Z 20004KT 13/12 A2991 RMK A01 T01320117  RH  091%=      5-min Rain = 0
KSW1 250244Z 20005KT 13/12 A2991 RMK A01 T01310118  RH  091%=      5-min Rain = 0
KSW1 250245Z 20004KT 13/12 A2991 RMK A01 T01310118  RH  092%=      5-min Rain = 0
KSW1 250246Z 20004KT 13/12 A2991 RMK A01 T01310118  RH  092%=      5-min Rain = 0
KSW1 250247Z 20004KT 13/12 A2991 RMK A01 T01300118  RH  092%=      5-min Rain = 0
KSW1 250248Z 20004KT 13/12 A2991 RMK A01 T01300118  RH  092%=      5-min Rain = 0
KSW1 250249Z 20004KT 13/12 A2991 RMK A01 T01300118  RH  093%=      5-min Rain = 0
KSW1 250250Z 20004KT 13/12 A2991 RMK A01 T01290118  RH  093%=      5-min Rain = 0
KSW1 250251Z 20004KT 13/12 A2991 RMK A01 T01290118  RH  093%=      5-min Rain = 0
KSW1 250252Z 21004KT 13/12 A2991 RMK A01 T01290119  RH  093%=      5-min Rain = 0
KSW1 250253Z 21004KT 13/12 A2991 RMK A01 T01290118  RH  093%=      5-min Rain = 0
KSW1 250254Z 21004KT 13/12 A2991 RMK A01 T01280118  RH  093%=      5-min Rain = 0
KSW1 250255Z 21004KT 13/12 A2991 RMK A01 T01290118  RH  093%=      5-min Rain = 0
KSW1 250256Z 21004KT 13/12 A2991 RMK A01 T01280117  RH  093%=      5-min Rain = 0
KSW1 250257Z 21005KT 13/12 A2991 RMK A01 T01280117  RH  093%=      5-min Rain = 0
KSW1 250258Z 21005KT 13/12 A2992 RMK A01 T01290117  RH  093%=      5-min Rain = 0
KSW1 250259Z 22005KT 13/12 A2992 RMK A01 T01280116  RH  092%=      5-min Rain = 0
KSW1 250300Z 22005KT 13/12 A2992 RMK A01 T01280116  RH  092%=      5-min Rain = 0
KSW1 250301Z 22005KT 13/12 A2992 RMK A01 T01280117  RH  093%=      5-min Rain = 0
KSW1 250302Z 22005KT 13/12 A2992 RMK A01 T01280117  RH  093%=      5-min Rain = 0
KSW1 250303Z 22005KT 13/12 A2992 RMK A01 T01290117  RH  092%=      5-min Rain = 0
KSW1 250304Z 23005KT 13/12 A2992 RMK A01 T01290117  RH  092%=      5-min Rain = 0
KSW1 250305Z 23005KT 13/12 A2992 RMK A01 T01280117  RH  093%=      5-min Rain = 0
KSW1 250306Z 23005KT 13/12 A2992 RMK A01 T01280117  RH  093%=      5-min Rain = 0
KSW1 250307Z 23005KT 13/12 A2992 RMK A01 T01280117  RH  093%=      5-min Rain = 0
KSW1 250308Z 23006KT 13/12 A2992 RMK A01 T01280117  RH  093%=      5-min Rain = 0
KSW1 250309Z 23005KT 13/12 A2992 RMK A01 T01280117  RH  093%=      5-min Rain = 0
KSW1 250310Z 23005KT 13/12 A2992 RMK A01 T01280117  RH  093%=      5-min Rain = 0
KSW1 250311Z 23005KT 13/12 A2992 RMK A01 T01280117  RH  093%=      5-min Rain = 0
KSW1 250312Z 23005KT 13/12 A2992 RMK A01 T01280117  RH  093%=      5-min Rain = 0
KSW1 250313Z 23005KT 13/12 A2992 RMK A01 T01280117  RH  093%=      5-min Rain = 0
KSW1 250314Z 23005KT 13/12 A2992 RMK A01 T01270117  RH  093%=      5-min Rain = 0
KSW1 250315Z 23005KT 13/12 A2992 RMK A01 T01270117  RH  093%=      5-min Rain = 0
KSW1 250316Z 23004KT 13/12 A2992 RMK A01 T01270117  RH  093%=      5-min Rain = 0
KSW1 250317Z 22004KT 13/12 A2992 RMK A01 T01270117  RH  094%=      5-min Rain = 0
KSW1 250318Z 23004KT 13/12 A2992 RMK A01 T01270117  RH  094%=      5-min Rain = 0
KSW1 250319Z 22003KT 13/12 A2992 RMK A01 T01270117  RH  094%=      5-min Rain = 0
KSW1 250320Z 22003KT 13/12 A2992 RMK A01 T01270117  RH  094%=      5-min Rain = 0
KSW1 250321Z 22003KT 13/12 A2992 RMK A01 T01270117  RH  094%=      5-min Rain = 0
KSW1 250322Z 22003KT 13/12 A2992 RMK A01 T01270117  RH  094%=      5-min Rain = 0
KSW1 250323Z 22003KT 13/12 A2992 RMK A01 T01260116  RH  094%=      5-min Rain = 0
KSW1 250324Z 21003KT 13/12 A2992 RMK A01 T01260116  RH  094%=      5-min Rain = 0
KSW1 250325Z 20002KT 13/12 A2992 RMK A01 T01260116  RH  094%=      5-min Rain = 0
KSW1 250326Z 20003KT 13/12 A2992 RMK A01 T01260116  RH  094%=      5-min Rain = 0
KSW1 250327Z 19003KT 13/12 A2992 RMK A01 T01260116  RH  094%=      5-min Rain = 0
KSW1 250328Z 18003KT 13/12 A2992 RMK A01 T01250116  RH  094%=      5-min Rain = 0
KSW1 250329Z 18003KT 13/12 A2992 RMK A01 T01250115  RH  094%=      5-min Rain = 0
KSW1 250330Z 18003KT 12/12 A2992 RMK A01 T01240115  RH  094%=      5-min Rain = 0
KSW1 250331Z 18002KT 12/12 A2992 RMK A01 T01240115  RH  094%=      5-min Rain = 0
KSW1 250332Z 19003KT 12/12 A2992 RMK A01 T01240116  RH  094%=      5-min Rain = 0
KSW1 250333Z 19003KT 12/12 A2993 RMK A01 T01240116  RH  095%=      5-min Rain = 0
KSW1 250334Z 20002KT 12/12 A2993 RMK A01 T01240115  RH  095%=      5-min Rain = 0
KSW1 250335Z 20002KT 12/12 A2993 RMK A01 T01240115  RH  095%=      5-min Rain = 0
KSW1 250336Z 20002KT 12/12 A2993 RMK A01 T01240116  RH  095%=      5-min Rain = 0
KSW1 250337Z 21002KT 12/12 A2993 RMK A01 T01240116  RH  095%=      5-min Rain = 0
KSW1 250338Z 22003KT 12/12 A2993 RMK A01 T01240116  RH  095%=      5-min Rain = 0
KSW1 250339Z 23002KT 12/12 A2993 RMK A01 T01240115  RH  095%=      5-min Rain = 0
KSW1 250340Z 22003KT 12/12 A2993 RMK A01 T01240115  RH  094%=      5-min Rain = 0
KSW1 250341Z 22004KT 12/12 A2993 RMK A01 T01240115  RH  094%=      5-min Rain = 0
KSW1 250342Z 22003KT 12/12 A2993 RMK A01 T01240115  RH  094%=      5-min Rain = 0
KSW1 250343Z 21003KT 12/12 A2993 RMK A01 T01240115  RH  094%=      5-min Rain = 0
KSW1 250344Z 22003KT 12/11 A2993 RMK A01 T01240114  RH  094%=      5-min Rain = 0
KSW1 250345Z 22003KT 12/11 A2993 RMK A01 T01240114  RH  094%=      5-min Rain = 0
KSW1 250346Z 22004KT 12/11 A2993 RMK A01 T01240114  RH  094%=      5-min Rain = 0
KSW1 250347Z 22004KT 12/11 A2993 RMK A01 T01240114  RH  094%=      5-min Rain = 0
KSW1 250348Z 22004KT 12/11 A2993 RMK A01 T01240114  RH  094%=      5-min Rain = 0
KSW1 250349Z 22004KT 12/11 A2993 RMK A01 T01240114  RH  094%=      5-min Rain = 0
KSW1 250350Z 22004KT 12/11 A2993 RMK A01 T01240114  RH  094%=      5-min Rain = 0
KSW1 250351Z 22004KT 12/11 A2993 RMK A01 T01230114  RH  094%=      5-min Rain = 0
KSW1 250352Z 22004KT 12/11 A2993 RMK A01 T01230113  RH  094%=      5-min Rain = 0
KSW1 250353Z 22004KT 12/11 A2993 RMK A01 T01230113  RH  094%=      5-min Rain = 0
KSW1 250354Z 22004KT 12/11 A2993 RMK A01 T01230113  RH  094%=      5-min Rain = 0
KSW1 250355Z 21004KT 12/11 A2993 RMK A01 T01220113  RH  094%=      5-min Rain = 0
KSW1 250356Z 22005KT 12/11 A2993 RMK A01 T01220113  RH  094%=      5-min Rain = 0
KSW1 250357Z 21004KT 12/11 A2993 RMK A01 T01220113  RH  094%=      5-min Rain = 0
KSW1 250358Z 22004KT 12/11 A2993 RMK A01 T01220113  RH  094%=      5-min Rain = 0
KSW1 250359Z 22004KT 12/11 A2993 RMK A01 T01220112  RH  094%=      5-min Rain = 0
KSW1 250400Z 22004KT 12/11 A2993 RMK A01 T01220112  RH  094%=      5-min Rain = 0
KSW1 250401Z 22004KT 12/11 A2993 RMK A01 T01220112  RH  094%=      5-min Rain = 0
KSW1 250402Z 22004KT 12/11 A2993 RMK A01 T01220112  RH  093%=      5-min Rain = 0
KSW1 250403Z 21004KT 12/11 A2993 RMK A01 T01220112  RH  093%=      5-min Rain = 0
KSW1 250404Z 21004KT 12/11 A2993 RMK A01 T01220112  RH  093%=      5-min Rain = 0
KSW1 250405Z 21004KT 12/11 A2993 RMK A01 T01230112  RH  093%=      5-min Rain = 0
KSW1 250406Z 21003KT 12/11 A2993 RMK A01 T01230112  RH  093%=      5-min Rain = 0
KSW1 250407Z 21003KT 12/11 A2993 RMK A01 T01230112  RH  093%=      5-min Rain = 0
KSW1 250408Z 21004KT 12/11 A2993 RMK A01 T01230112  RH  093%=      5-min Rain = 0
KSW1 250409Z 21004KT 12/11 A2993 RMK A01 T01230112  RH  093%=      5-min Rain = 0
KSW1 250410Z 21003KT 12/11 A2993 RMK A01 T01230111  RH  093%=      5-min Rain = 0
KSW1 250411Z 21003KT 12/11 A2993 RMK A01 T01230111  RH  093%=      5-min Rain = 0
KSW1 250412Z 21003KT 12/11 A2993 RMK A01 T01230111  RH  092%=      5-min Rain = 0
KSW1 250413Z 21003KT 12/11 A2993 RMK A01 T01230111  RH  092%=      5-min Rain = 0
KSW1 250414Z 22004KT 12/11 A2993 RMK A01 T01220110  RH  092%=      5-min Rain = 0
KSW1 250415Z 22004KT 12/11 A2993 RMK A01 T01220110  RH  093%=      5-min Rain = 0
KSW1 250416Z 21003KT 12/11 A2993 RMK A01 T01220110  RH  093%=      5-min Rain = 0
KSW1 250417Z 21003KT 12/11 A2993 RMK A01 T01210110  RH  093%=      5-min Rain = 0
KSW1 250418Z 21004KT 12/11 A2993 RMK A01 T01210110  RH  093%=      5-min Rain = 0
KSW1 250419Z 21004KT 12/11 A2993 RMK A01 T01210110  RH  093%=      5-min Rain = 0
KSW1 250420Z 21004KT 12/11 A2993 RMK A01 T01210110  RH  093%=      5-min Rain = 0
KSW1 250421Z 21004KT 12/11 A2993 RMK A01 T01200110  RH  093%=      5-min Rain = 0
KSW1 250422Z 21004KT 12/11 A2993 RMK A01 T01200109  RH  093%=      5-min Rain = 0
KSW1 250423Z 21004KT 12/11 A2993 RMK A01 T01190109  RH  093%=      5-min Rain = 0
KSW1 250424Z 21003KT 12/11 A2993 RMK A01 T01190108  RH  093%=      5-min Rain = 0
KSW1 250425Z 20003KT 12/11 A2993 RMK A01 T01190108  RH  093%=      5-min Rain = 0
KSW1 250426Z 21003KT 12/11 A2993 RMK A01 T01190108  RH  093%=      5-min Rain = 0
KSW1 250427Z 20002KT 12/11 A2993 RMK A01 T01180108  RH  093%=      5-min Rain = 0
KSW1 250428Z 20003KT 12/11 A2993 RMK A01 T01180107  RH  093%=      5-min Rain = 0
KSW1 250429Z 20003KT 12/11 A2993 RMK A01 T01170107  RH  093%=      5-min Rain = 0
KSW1 250430Z 20003KT 12/11 A2993 RMK A01 T01170106  RH  093%=      5-min Rain = 0
KSW1 250431Z 20003KT 12/11 A2993 RMK A01 T01160106  RH  093%=      5-min Rain = 0
KSW1 250432Z 19003KT 12/11 A2993 RMK A01 T01160106  RH  094%=      5-min Rain = 0
KSW1 250433Z 19003KT 12/11 A2993 RMK A01 T01150105  RH  094%=      5-min Rain = 0
KSW1 250434Z 19003KT 12/11 A2992 RMK A01 T01150105  RH  094%=      5-min Rain = 0
KSW1 250435Z 19003KT 11/11 A2992 RMK A01 T01140105  RH  094%=      5-min Rain = 0
KSW1 250436Z 19003KT 11/11 A2992 RMK A01 T01140105  RH  094%=      5-min Rain = 0
KSW1 250437Z 19003KT 11/11 A2992 RMK A01 T01140105  RH  094%=      5-min Rain = 0
KSW1 250438Z 20003KT 11/11 A2992 RMK A01 T01140106  RH  094%=      5-min Rain = 0
KSW1 250439Z 20004KT 11/11 A2993 RMK A01 T01140105  RH  094%=      5-min Rain = 0
KSW1 250440Z 20004KT 11/11 A2993 RMK A01 T01140105  RH  094%=      5-min Rain = 0
KSW1 250441Z 20004KT 12/11 A2993 RMK A01 T01150106  RH  094%=      5-min Rain = 0
KSW1 250442Z 20004KT 12/11 A2993 RMK A01 T01150105  RH  094%=      5-min Rain = 0
KSW1 250443Z 20004KT 12/11 A2993 RMK A01 T01150105  RH  094%=      5-min Rain = 0
KSW1 250444Z 21004KT 12/11 A2993 RMK A01 T01150106  RH  094%=      5-min Rain = 0
KSW1 250445Z 21004KT 12/11 A2993 RMK A01 T01160106  RH  094%=      5-min Rain = 0
KSW1 250446Z 22004KT 12/11 A2993 RMK A01 T01160105  RH  093%=      5-min Rain = 0
KSW1 250447Z 22004KT 12/10 A2993 RMK A01 T01160104  RH  093%=      5-min Rain = 0
KSW1 250448Z 21004KT 12/10 A2993 RMK A01 T01160104  RH  093%=      5-min Rain = 0
KSW1 250449Z 22004KT 12/10 A2993 RMK A01 T01160104  RH  092%=      5-min Rain = 0
KSW1 250450Z 22004KT 12/10 A2993 RMK A01 T01160104  RH  092%=      5-min Rain = 0
KSW1 250451Z 21004KT 12/10 A2993 RMK A01 T01170104  RH  092%=      5-min Rain = 0
KSW1 250452Z 21004KT 12/10 A2993 RMK A01 T01170104  RH  091%=      5-min Rain = 0
KSW1 250453Z 21004KT 12/10 A2993 RMK A01 T01170103  RH  091%=      5-min Rain = 0
KSW1 250454Z 21004KT 12/10 A2993 RMK A01 T01180103  RH  091%=      5-min Rain = 0
KSW1 250455Z 21003KT 12/10 A2992 RMK A01 T01180103  RH  091%=      5-min Rain = 0
KSW1 250456Z 21004KT 12/10 A2992 RMK A01 T01170103  RH  091%=      5-min Rain = 0
KSW1 250457Z 20003KT 12/10 A2992 RMK A01 T01170103  RH  091%=      5-min Rain = 0
KSW1 250458Z 20004KT 12/10 A2992 RMK A01 T01160102  RH  091%=      5-min Rain = 0
KSW1 250459Z 21004KT 12/10 A2992 RMK A01 T01150101  RH  091%=      5-min Rain = 0

Page generated in 0.1457 seconds.